<?xml version='1.0' encoding='UTF-8'?><gpx version="1.1" creator="JPX - https://github.com/jenetics/jpx" xmlns="http://www.topografix.com/GPX/1/1"><trk><trkseg><trkpt lat="43.68163812469867" lon="11.132179969058667"><ele>97.99999999999999</ele><time>2026-04-19T17:36:25Z</time></trkpt><trkpt lat="43.68170546968899" lon="11.132211151792225"><ele>98.0</ele><time>2026-04-19T17:36:27Z</time></trkpt><trkpt lat="43.68178176345926" lon="11.132215403584679"><ele>98.0</ele><time>2026-04-19T17:36:30Z</time></trkpt><trkpt lat="43.68176089426495" lon="11.132130486057417"><ele>98.0</ele><time>2026-04-19T17:36:33Z</time></trkpt><trkpt lat="43.681695241346816" lon="11.132105095741714"><ele>97.99999999999999</ele><time>2026-04-19T17:36:35Z</time></trkpt><trkpt lat="43.681677760070876" lon="11.132193155973793"><ele>98.0</ele><time>2026-04-19T17:36:38Z</time></trkpt><trkpt lat="43.68157503673752" lon="11.13217952751487"><ele>98.0</ele><time>2026-04-19T17:36:41Z</time></trkpt><trkpt lat="43.68145779266203" lon="11.132130018713989"><ele>98.0</ele><time>2026-04-19T17:36:43Z</time></trkpt><trkpt lat="43.6813547160947" lon="11.132085522904049"><ele>98.0</ele><time>2026-04-19T17:36:45Z</time></trkpt><trkpt lat="43.6812902857532" lon="11.132030194188683"><ele>98.0</ele><time>2026-04-19T17:36:47Z</time></trkpt><trkpt lat="43.681235602642786" lon="11.131975644753325"><ele>98.0</ele><time>2026-04-19T17:36:49Z</time></trkpt><trkpt lat="43.68117010062111" lon="11.131913349717488"><ele>97.99999999999999</ele><time>2026-04-19T17:36:51Z</time></trkpt><trkpt lat="43.6811004854468" lon="11.131858573441423"><ele>98.0</ele><time>2026-04-19T17:36:53Z</time></trkpt><trkpt lat="43.681017031976715" lon="11.131815381485358"><ele>98.0</ele><time>2026-04-19T17:36:55Z</time></trkpt><trkpt lat="43.680972588399435" lon="11.131906441584208"><ele>98.0</ele><time>2026-04-19T17:36:58Z</time></trkpt><trkpt lat="43.68104970894364" lon="11.131864934198948"><ele>97.99999999999999</ele><time>2026-04-19T17:37:11.999Z</time></trkpt><trkpt lat="43.681133963665324" lon="11.13177005559636"><ele>98.0</ele><time>2026-04-19T17:37:13.999Z</time></trkpt><trkpt lat="43.68123741446672" lon="11.131710454320766"><ele>97.99999999999999</ele><time>2026-04-19T17:37:15.999Z</time></trkpt><trkpt lat="43.681352552791985" lon="11.131652554295083"><ele>98.0</ele><time>2026-04-19T17:37:17.999Z</time></trkpt><trkpt lat="43.68143154649262" lon="11.131612858406193"><ele>98.0</ele><time>2026-04-19T17:37:18.999Z</time></trkpt><trkpt lat="43.681511153307056" lon="11.131564112612002"><ele>98.0</ele><time>2026-04-19T17:37:19.999Z</time></trkpt><trkpt lat="43.68158330601182" lon="11.13152257294719"><ele>97.99999999999999</ele><time>2026-04-19T17:37:20.999Z</time></trkpt><trkpt lat="43.68165140136018" lon="11.13147844285532"><ele>98.0</ele><time>2026-04-19T17:37:21.999Z</time></trkpt><trkpt lat="43.6817185312925" lon="11.131437331861761"><ele>97.49999999999999</ele><time>2026-04-19T17:37:22.999Z</time></trkpt><trkpt lat="43.68177694962445" lon="11.131398351045208"><ele>97.0</ele><time>2026-04-19T17:37:23.999Z</time></trkpt><trkpt lat="43.68185423361125" lon="11.131312615027035"><ele>96.5</ele><time>2026-04-19T17:37:25.999Z</time></trkpt><trkpt lat="43.681905932340555" lon="11.131217252038937"><ele>96.0</ele><time>2026-04-19T17:37:27.999Z</time></trkpt><trkpt lat="43.681914357132335" lon="11.131086948713875"><ele>95.5</ele><time>2026-04-19T17:37:29.999Z</time></trkpt><trkpt lat="43.68187566802526" lon="11.130973500066313"><ele>95.0</ele><time>2026-04-19T17:37:31.999Z</time></trkpt><trkpt lat="43.681824399342595" lon="11.130834068658496"><ele>93.75</ele><time>2026-04-19T17:37:33.999Z</time></trkpt><trkpt lat="43.681670188019865" lon="11.130718712085095"><ele>92.5</ele><time>2026-04-19T17:37:35.999Z</time></trkpt><trkpt lat="43.681715802365694" lon="11.130581201656645"><ele>91.25</ele><time>2026-04-19T17:37:37.999Z</time></trkpt><trkpt lat="43.681568380237074" lon="11.130517934757096"><ele>90.0</ele><time>2026-04-19T17:37:39.999Z</time></trkpt><trkpt lat="43.681504568498546" lon="11.13054403636784"><ele>90.0</ele><time>2026-04-19T17:37:40.999Z</time></trkpt><trkpt lat="43.68143368905732" lon="11.130559656312109"><ele>90.0</ele><time>2026-04-19T17:37:41.999Z</time></trkpt><trkpt lat="43.68135459818041" lon="11.130577085838313"><ele>90.0</ele><time>2026-04-19T17:37:42.999Z</time></trkpt><trkpt lat="43.6812656946451" lon="11.130596677806405"><ele>90.0</ele><time>2026-04-19T17:37:43.999Z</time></trkpt><trkpt lat="43.68116985683238" lon="11.130618407964032"><ele>90.0</ele><time>2026-04-19T17:37:44.999Z</time></trkpt><trkpt lat="43.681082360544565" lon="11.130638374201508"><ele>90.0</ele><time>2026-04-19T17:37:45.999Z</time></trkpt><trkpt lat="43.68099666688325" lon="11.130659432435973"><ele>89.5</ele><time>2026-04-19T17:37:46.999Z</time></trkpt><trkpt lat="43.68089962330504" lon="11.130683705873933"><ele>89.0</ele><time>2026-04-19T17:37:47.999Z</time></trkpt><trkpt lat="43.68081387601547" lon="11.130706077302445"><ele>88.5</ele><time>2026-04-19T17:37:48.999Z</time></trkpt><trkpt lat="43.68073521355315" lon="11.130727010118443"><ele>88.0</ele><time>2026-04-19T17:37:49.999Z</time></trkpt><trkpt lat="43.68065893820408" lon="11.130747307691106"><ele>87.5</ele><time>2026-04-19T17:37:50.999Z</time></trkpt><trkpt lat="43.68059478791874" lon="11.130764378688086"><ele>87.0</ele><time>2026-04-19T17:37:51.999Z</time></trkpt><trkpt lat="43.680510222548634" lon="11.130817102763787"><ele>87.39999999999999</ele><time>2026-04-19T17:37:53.999Z</time></trkpt><trkpt lat="43.680407907084884" lon="11.130845206153014"><ele>87.8</ele><time>2026-04-19T17:37:55.999Z</time></trkpt><trkpt lat="43.68030395357006" lon="11.13080225232775"><ele>88.2</ele><time>2026-04-19T17:37:57.999Z</time></trkpt><trkpt lat="43.680214146971174" lon="11.130740555686266"><ele>88.6</ele><time>2026-04-19T17:37:58.999Z</time></trkpt><trkpt lat="43.68010512140785" lon="11.130689900345736"><ele>89.0</ele><time>2026-04-19T17:37:59.999Z</time></trkpt><trkpt lat="43.6800314309771" lon="11.130623266374291"><ele>87.83333333333334</ele><time>2026-04-19T17:38:00.999Z</time></trkpt><trkpt lat="43.679966746377765" lon="11.130586671280632"><ele>86.66666666666667</ele><time>2026-04-19T17:38:01.999Z</time></trkpt><trkpt lat="43.67986374105544" lon="11.130542951004658"><ele>85.5</ele><time>2026-04-19T17:38:03.999Z</time></trkpt><trkpt lat="43.67978399312281" lon="11.130542786270542"><ele>84.33333333333333</ele><time>2026-04-19T17:38:05.999Z</time></trkpt><trkpt lat="43.67969774559891" lon="11.130559744660934"><ele>83.16666666666666</ele><time>2026-04-19T17:38:07.999Z</time></trkpt><trkpt lat="43.679605922012534" lon="11.130628698450895"><ele>82.0</ele><time>2026-04-19T17:38:18Z</time></trkpt><trkpt lat="43.67954300069106" lon="11.130668948735353"><ele>82.0</ele><time>2026-04-19T17:38:20Z</time></trkpt><trkpt lat="43.67950217991813" lon="11.130595892764056"><ele>82.0</ele><time>2026-04-19T17:38:22Z</time></trkpt><trkpt lat="43.67943692073058" lon="11.130595018023412"><ele>82.0</ele><time>2026-04-19T17:38:24Z</time></trkpt><trkpt lat="43.679324651648905" lon="11.130619808860594"><ele>82.0</ele><time>2026-04-19T17:38:26Z</time></trkpt><trkpt lat="43.67922012594733" lon="11.130653305038452"><ele>82.0</ele><time>2026-04-19T17:38:28Z</time></trkpt><trkpt lat="43.67911830634232" lon="11.130707459027336"><ele>82.39999999999999</ele><time>2026-04-19T17:38:30Z</time></trkpt><trkpt lat="43.67901167660293" lon="11.130785144476844"><ele>82.8</ele><time>2026-04-19T17:38:32Z</time></trkpt><trkpt lat="43.67895507678553" lon="11.13083779682965"><ele>83.2</ele><time>2026-04-19T17:38:33Z</time></trkpt><trkpt lat="43.678894883401405" lon="11.130898701345398"><ele>83.6</ele><time>2026-04-19T17:38:35Z</time></trkpt><trkpt lat="43.67881214180717" lon="11.130974998287886"><ele>84.0</ele><time>2026-04-19T17:38:37Z</time></trkpt><trkpt lat="43.678974345521674" lon="11.131244723661691"><ele>84.0</ele><time>2026-04-19T17:38:42Z</time></trkpt><trkpt lat="43.67903746900464" lon="11.131160534141353"><ele>84.0</ele><time>2026-04-19T17:38:44Z</time></trkpt><trkpt lat="43.679136788816116" lon="11.131044769705218"><ele>84.0</ele><time>2026-04-19T17:38:46Z</time></trkpt><trkpt lat="43.67924563578303" lon="11.130969062575655"><ele>84.0</ele><time>2026-04-19T17:38:48Z</time></trkpt><trkpt lat="43.67930294362453" lon="11.130931779638008"><ele>84.0</ele><time>2026-04-19T17:38:49Z</time></trkpt><trkpt lat="43.679393878869746" lon="11.130895501880685"><ele>83.66666666666667</ele><time>2026-04-19T17:38:51Z</time></trkpt><trkpt lat="43.67949124564072" lon="11.130857728027015"><ele>83.33333333333333</ele><time>2026-04-19T17:38:53Z</time></trkpt><trkpt lat="43.6795730131144" lon="11.130811361700186"><ele>83.0</ele><time>2026-04-19T17:38:55Z</time></trkpt><trkpt lat="43.679631314300025" lon="11.130736095920609"><ele>82.66666666666666</ele><time>2026-04-19T17:38:57Z</time></trkpt><trkpt lat="43.67965806381769" lon="11.130655156057212"><ele>82.33333333333333</ele><time>2026-04-19T17:38:59Z</time></trkpt><trkpt lat="43.67957664895551" lon="11.130596209770763"><ele>82.0</ele><time>2026-04-19T17:39:02Z</time></trkpt><trkpt lat="43.67948039674695" lon="11.13060936586567"><ele>81.83333333333333</ele><time>2026-04-19T17:39:03Z</time></trkpt><trkpt lat="43.679385141968446" lon="11.130639446884361"><ele>81.66666666666666</ele><time>2026-04-19T17:39:04Z</time></trkpt><trkpt lat="43.67931868548579" lon="11.13064128960243"><ele>81.5</ele><time>2026-04-19T17:39:05Z</time></trkpt><trkpt lat="43.67920149477254" lon="11.13068072796611"><ele>81.33333333333333</ele><time>2026-04-19T17:39:07Z</time></trkpt><trkpt lat="43.67914117585848" lon="11.13073047209953"><ele>81.16666666666667</ele><time>2026-04-19T17:39:08Z</time></trkpt><trkpt lat="43.67907445516043" lon="11.13077752751838"><ele>81.0</ele><time>2026-04-19T17:39:09Z</time></trkpt><trkpt lat="43.67900468419747" lon="11.130834992708676"><ele>81.5</ele><time>2026-04-19T17:39:10Z</time></trkpt><trkpt lat="43.67893561862744" lon="11.130891151536506"><ele>82.0</ele><time>2026-04-19T17:39:11Z</time></trkpt><trkpt lat="43.67885447868345" lon="11.130957836517029"><ele>82.5</ele><time>2026-04-19T17:39:12Z</time></trkpt><trkpt lat="43.67879767649593" lon="11.13100850118775"><ele>83.0</ele><time>2026-04-19T17:39:12.999Z</time></trkpt><trkpt lat="43.67871981806864" lon="11.131051500571958"><ele>83.5</ele><time>2026-04-19T17:39:13.999Z</time></trkpt><trkpt lat="43.678656183330204" lon="11.131078608676779"><ele>84.0</ele><time>2026-04-19T17:39:14.999Z</time></trkpt><trkpt lat="43.678580159784126" lon="11.131093712734105"><ele>84.0</ele><time>2026-04-19T17:39:15.999Z</time></trkpt><trkpt lat="43.67850937220298" lon="11.131122222724496"><ele>84.0</ele><time>2026-04-19T17:39:16.999Z</time></trkpt><trkpt lat="43.67844640012462" lon="11.131170639586566"><ele>84.0</ele><time>2026-04-19T17:39:17.999Z</time></trkpt><trkpt lat="43.67836585369896" lon="11.131190308455682"><ele>84.0</ele><time>2026-04-19T17:39:18.999Z</time></trkpt><trkpt lat="43.678287142608525" lon="11.131228534490878"><ele>84.0</ele><time>2026-04-19T17:39:19.999Z</time></trkpt><trkpt lat="43.67819550732735" lon="11.13126802061614"><ele>84.0</ele><time>2026-04-19T17:39:20.999Z</time></trkpt><trkpt lat="43.678124491183404" lon="11.13129774574816"><ele>84.0</ele><time>2026-04-19T17:39:21.999Z</time></trkpt><trkpt lat="43.67802395223663" lon="11.131335045434438"><ele>84.0</ele><time>2026-04-19T17:39:23.999Z</time></trkpt><trkpt lat="43.6779001573925" lon="11.13134097084879"><ele>84.0</ele><time>2026-04-19T17:39:25.999Z</time></trkpt><trkpt lat="43.677837029463674" lon="11.13138545440537"><ele>84.0</ele><time>2026-04-19T17:39:26.999Z</time></trkpt><trkpt lat="43.67777197137017" lon="11.131420743768755"><ele>84.0</ele><time>2026-04-19T17:39:27.999Z</time></trkpt><trkpt lat="43.67771151725388" lon="11.131460973466897"><ele>84.0</ele><time>2026-04-19T17:39:28.999Z</time></trkpt><trkpt lat="43.67763898001537" lon="11.13150461753028"><ele>84.0</ele><time>2026-04-19T17:39:29.999Z</time></trkpt><trkpt lat="43.67757140074537" lon="11.131547268513039"><ele>84.0</ele><time>2026-04-19T17:39:30.999Z</time></trkpt><trkpt lat="43.677501001884785" lon="11.131570498670865"><ele>84.0</ele><time>2026-04-19T17:39:31.999Z</time></trkpt><trkpt lat="43.67743234495821" lon="11.131573230293634"><ele>84.0</ele><time>2026-04-19T17:39:32.999Z</time></trkpt><trkpt lat="43.677370317465574" lon="11.131597715755834"><ele>84.0</ele><time>2026-04-19T17:39:33.999Z</time></trkpt><trkpt lat="43.67727144380343" lon="11.131657736184062"><ele>84.0</ele><time>2026-04-19T17:39:35.999Z</time></trkpt><trkpt lat="43.67717836876765" lon="11.131688759170336"><ele>84.0</ele><time>2026-04-19T17:39:37.999Z</time></trkpt><trkpt lat="43.67719945407351" lon="11.131796222406548"><ele>84.0</ele><time>2026-04-19T17:39:38.999Z</time></trkpt><trkpt lat="43.677146727339675" lon="11.13187104084486"><ele>84.0</ele><time>2026-04-19T17:39:40.999Z</time></trkpt><trkpt lat="43.67708323749422" lon="11.131961131923873"><ele>84.0</ele><time>2026-04-19T17:39:42.999Z</time></trkpt><trkpt lat="43.677031566152415" lon="11.132037592660097"><ele>84.0</ele><time>2026-04-19T17:39:45.999Z</time></trkpt><trkpt lat="43.67698469085004" lon="11.132113214236757"><ele>84.0</ele><time>2026-04-19T17:39:50.999Z</time></trkpt><trkpt lat="43.67631282386038" lon="11.132061054573718"><ele>84.0</ele><time>2026-04-19T17:40:37Z</time></trkpt><trkpt lat="43.6762153823979" lon="11.132104352923013"><ele>84.0</ele><time>2026-04-19T17:40:38Z</time></trkpt><trkpt lat="43.67613154456865" lon="11.132140332228166"><ele>84.0</ele><time>2026-04-19T17:40:39Z</time></trkpt><trkpt lat="43.67606585451067" lon="11.132180871790878"><ele>84.0</ele><time>2026-04-19T17:40:40Z</time></trkpt><trkpt lat="43.675996789049755" lon="11.132223883037433"><ele>84.0</ele><time>2026-04-19T17:40:41Z</time></trkpt><trkpt lat="43.6759301042388" lon="11.132259032980253"><ele>84.0</ele><time>2026-04-19T17:40:42Z</time></trkpt><trkpt lat="43.67586687985347" lon="11.132292794732454"><ele>84.4</ele><time>2026-04-19T17:40:43Z</time></trkpt><trkpt lat="43.675807576414314" lon="11.132329108189387"><ele>84.80000000000001</ele><time>2026-04-19T17:40:44Z</time></trkpt><trkpt lat="43.67574466852109" lon="11.132361462476094"><ele>85.19999999999999</ele><time>2026-04-19T17:40:45Z</time></trkpt><trkpt lat="43.67565762936381" lon="11.132403502356578"><ele>85.6</ele><time>2026-04-19T17:40:46Z</time></trkpt><trkpt lat="43.675549667331715" lon="11.13245398512572"><ele>86.0</ele><time>2026-04-19T17:40:47Z</time></trkpt><trkpt lat="43.67543735608358" lon="11.132499748861758"><ele>86.0</ele><time>2026-04-19T17:40:48Z</time></trkpt><trkpt lat="43.67533618610263" lon="11.132533272406636"><ele>86.0</ele><time>2026-04-19T17:40:49Z</time></trkpt><trkpt lat="43.675254513356165" lon="11.132573352726455"><ele>86.0</ele><time>2026-04-19T17:40:50Z</time></trkpt><trkpt lat="43.67516108083897" lon="11.132626228292812"><ele>86.0</ele><time>2026-04-19T17:40:51Z</time></trkpt><trkpt lat="43.67506247807202" lon="11.132690935459278"><ele>86.0</ele><time>2026-04-19T17:40:52Z</time></trkpt><trkpt lat="43.67496537452399" lon="11.132751237108593"><ele>85.66666666666667</ele><time>2026-04-19T17:40:53Z</time></trkpt><trkpt lat="43.67486743624413" lon="11.132801085444289"><ele>85.33333333333334</ele><time>2026-04-19T17:40:54Z</time></trkpt><trkpt lat="43.67478474569657" lon="11.132839342298317"><ele>85.0</ele><time>2026-04-19T17:40:55Z</time></trkpt><trkpt lat="43.674703688328755" lon="11.132879137608526"><ele>84.66666666666667</ele><time>2026-04-19T17:40:56Z</time></trkpt><trkpt lat="43.67462626208357" lon="11.132920202997353"><ele>84.33333333333333</ele><time>2026-04-19T17:40:57Z</time></trkpt><trkpt lat="43.67454616873481" lon="11.132955587674086"><ele>84.0</ele><time>2026-04-19T17:40:58Z</time></trkpt><trkpt lat="43.67445765763506" lon="11.133000316238576"><ele>83.6</ele><time>2026-04-19T17:40:59Z</time></trkpt><trkpt lat="43.67436401478954" lon="11.1330519070422"><ele>83.2</ele><time>2026-04-19T17:41:00Z</time></trkpt><trkpt lat="43.67426759909879" lon="11.133110670827765"><ele>82.8</ele><time>2026-04-19T17:41:01Z</time></trkpt><trkpt lat="43.674161757445425" lon="11.133175810958514"><ele>82.39999999999999</ele><time>2026-04-19T17:41:02Z</time></trkpt><trkpt lat="43.67406668774924" lon="11.133240329983273"><ele>82.0</ele><time>2026-04-19T17:41:03Z</time></trkpt><trkpt lat="43.67398950995029" lon="11.133292467420496"><ele>82.66666666666666</ele><time>2026-04-19T17:41:04Z</time></trkpt><trkpt lat="43.673905681281326" lon="11.133354269820487"><ele>83.33333333333333</ele><time>2026-04-19T17:41:05Z</time></trkpt><trkpt lat="43.67382359638102" lon="11.13342448354172"><ele>84.0</ele><time>2026-04-19T17:41:06Z</time></trkpt><trkpt lat="43.67375087046424" lon="11.133488210517836"><ele>84.66666666666667</ele><time>2026-04-19T17:41:07Z</time></trkpt><trkpt lat="43.67369518912683" lon="11.133529956868133"><ele>85.33333333333334</ele><time>2026-04-19T17:41:08Z</time></trkpt><trkpt lat="43.673634836150654" lon="11.133563179134683"><ele>86.0</ele><time>2026-04-19T17:41:09Z</time></trkpt><trkpt lat="43.67355802329398" lon="11.133590032144332"><ele>86.0</ele><time>2026-04-19T17:41:11Z</time></trkpt><trkpt lat="43.67350511796767" lon="11.133683333632925"><ele>86.0</ele><time>2026-04-19T17:41:13.999Z</time></trkpt><trkpt lat="43.67351407651974" lon="11.133779779415425"><ele>86.0</ele><time>2026-04-19T17:41:14.999Z</time></trkpt><trkpt lat="43.673607897645006" lon="11.133828936134488"><ele>86.0</ele><time>2026-04-19T17:41:16.999Z</time></trkpt><trkpt lat="43.67371765971658" lon="11.133876227682043"><ele>86.0</ele><time>2026-04-19T17:41:18.999Z</time></trkpt><trkpt lat="43.67379269653464" lon="11.13398102908684"><ele>87.8</ele><time>2026-04-19T17:41:20.999Z</time></trkpt><trkpt lat="43.673769499340814" lon="11.134160568189188"><ele>89.6</ele><time>2026-04-19T17:41:22.999Z</time></trkpt><trkpt lat="43.673753696868474" lon="11.134261820576834"><ele>91.4</ele><time>2026-04-19T17:41:23.999Z</time></trkpt><trkpt lat="43.6737072645356" lon="11.134352294945051"><ele>93.2</ele><time>2026-04-19T17:41:24.999Z</time></trkpt><trkpt lat="43.67362775156827" lon="11.134443338982171"><ele>95.0</ele><time>2026-04-19T17:41:25.999Z</time></trkpt><trkpt lat="43.67354905135031" lon="11.134555571299959"><ele>95.0</ele><time>2026-04-19T17:41:26.999Z</time></trkpt><trkpt lat="43.67350792037557" lon="11.134655036580371"><ele>95.0</ele><time>2026-04-19T17:41:27.999Z</time></trkpt><trkpt lat="43.67346409214344" lon="11.134785324994942"><ele>95.0</ele><time>2026-04-19T17:41:28.999Z</time></trkpt><trkpt lat="43.67343372583958" lon="11.134924177493987"><ele>95.0</ele><time>2026-04-19T17:41:29.999Z</time></trkpt><trkpt lat="43.67341031901882" lon="11.135065471475226"><ele>95.0</ele><time>2026-04-19T17:41:30.999Z</time></trkpt><trkpt lat="43.67339296401639" lon="11.135212464553934"><ele>98.2</ele><time>2026-04-19T17:41:31.999Z</time></trkpt><trkpt lat="43.67338450728999" lon="11.135323519614383"><ele>101.4</ele><time>2026-04-19T17:41:32.999Z</time></trkpt><trkpt lat="43.67338660800851" lon="11.135443995666284"><ele>104.6</ele><time>2026-04-19T17:41:33.999Z</time></trkpt><trkpt lat="43.67338614837505" lon="11.135547855861068"><ele>107.8</ele><time>2026-04-19T17:41:34.999Z</time></trkpt><trkpt lat="43.673373184145795" lon="11.13570986484319"><ele>111.0</ele><time>2026-04-19T17:41:35.999Z</time></trkpt><trkpt lat="43.67336203383444" lon="11.135857047445157"><ele>113.25</ele><time>2026-04-19T17:41:36.999Z</time></trkpt><trkpt lat="43.67336017040362" lon="11.136032722924174"><ele>115.5</ele><time>2026-04-19T17:41:37.999Z</time></trkpt><trkpt lat="43.67335828888225" lon="11.136227007410673"><ele>117.75</ele><time>2026-04-19T17:41:38.999Z</time></trkpt><trkpt lat="43.67336125205657" lon="11.136393510122769"><ele>120.0</ele><time>2026-04-19T17:41:39.999Z</time></trkpt><trkpt lat="43.67336022849219" lon="11.136564117974633"><ele>122.0</ele><time>2026-04-19T17:41:40.999Z</time></trkpt><trkpt lat="43.673345028627956" lon="11.136774582679942"><ele>124.0</ele><time>2026-04-19T17:41:41.999Z</time></trkpt><trkpt lat="43.67331492302795" lon="11.136963220998867"><ele>126.0</ele><time>2026-04-19T17:41:42.999Z</time></trkpt><trkpt lat="43.67326254630748" lon="11.137144968279488"><ele>128.0</ele><time>2026-04-19T17:41:43.999Z</time></trkpt><trkpt lat="43.67320732873689" lon="11.137335006016933"><ele>129.5</ele><time>2026-04-19T17:41:44.999Z</time></trkpt><trkpt lat="43.67315544607575" lon="11.13753612127494"><ele>131.0</ele><time>2026-04-19T17:41:45.999Z</time></trkpt><trkpt lat="43.67310562917936" lon="11.137729729236304"><ele>132.5</ele><time>2026-04-19T17:41:46.999Z</time></trkpt><trkpt lat="43.67306785239104" lon="11.137872445139019"><ele>134.0</ele><time>2026-04-19T17:41:47.999Z</time></trkpt><trkpt lat="43.67304713199733" lon="11.137999897747422"><ele>134.0</ele><time>2026-04-19T17:41:48.999Z</time></trkpt><trkpt lat="43.673043382337426" lon="11.138098910165441"><ele>134.0</ele><time>2026-04-19T17:41:49.999Z</time></trkpt><trkpt lat="43.67301983443093" lon="11.13818042729815"><ele>134.0</ele><time>2026-04-19T17:41:50.999Z</time></trkpt><trkpt lat="43.67302761458744" lon="11.138291963571689"><ele>134.0</ele><time>2026-04-19T17:41:51.999Z</time></trkpt><trkpt lat="43.673051757374154" lon="11.138429231365869"><ele>134.0</ele><time>2026-04-19T17:41:52.999Z</time></trkpt><trkpt lat="43.67306776734965" lon="11.138559926673102"><ele>134.0</ele><time>2026-04-19T17:41:53.999Z</time></trkpt><trkpt lat="43.67307300363048" lon="11.138689065454226"><ele>135.0</ele><time>2026-04-19T17:41:54.999Z</time></trkpt><trkpt lat="43.67305772896397" lon="11.138804084304795"><ele>136.0</ele><time>2026-04-19T17:41:55.999Z</time></trkpt><trkpt lat="43.67301455662417" lon="11.138892194253815"><ele>137.0</ele><time>2026-04-19T17:41:56.999Z</time></trkpt><trkpt lat="43.67294535657942" lon="11.138989825488968"><ele>138.0</ele><time>2026-04-19T17:41:57.999Z</time></trkpt><trkpt lat="43.67288211749913" lon="11.139101575758648"><ele>139.0</ele><time>2026-04-19T17:41:58.999Z</time></trkpt><trkpt lat="43.67282185883009" lon="11.139210386779098"><ele>140.16666666666669</ele><time>2026-04-19T17:41:59.999Z</time></trkpt><trkpt lat="43.67277666311756" lon="11.139317714130057"><ele>141.33333333333334</ele><time>2026-04-19T17:42:00.999Z</time></trkpt><trkpt lat="43.6727425459468" lon="11.13940355327387"><ele>142.5</ele><time>2026-04-19T17:42:01.999Z</time></trkpt><trkpt lat="43.6726783348808" lon="11.13947747312192"><ele>143.66666666666666</ele><time>2026-04-19T17:42:02.999Z</time></trkpt><trkpt lat="43.67264371543131" lon="11.139609599309273"><ele>144.83333333333331</ele><time>2026-04-19T17:42:04.999Z</time></trkpt><trkpt lat="43.672596359368555" lon="11.139696758083039"><ele>146.0</ele><time>2026-04-19T17:42:35Z</time></trkpt><trkpt lat="43.67253891583738" lon="11.139842097131607"><ele>147.33333333333331</ele><time>2026-04-19T17:42:37Z</time></trkpt><trkpt lat="43.67252028708311" lon="11.13993460977996"><ele>148.66666666666666</ele><time>2026-04-19T17:42:38Z</time></trkpt><trkpt lat="43.67247712964936" lon="11.140022845757512"><ele>150.0</ele><time>2026-04-19T17:42:39Z</time></trkpt><trkpt lat="43.67243650132899" lon="11.140123844931162"><ele>151.33333333333334</ele><time>2026-04-19T17:42:40Z</time></trkpt><trkpt lat="43.672394393124" lon="11.140228181004014"><ele>152.66666666666669</ele><time>2026-04-19T17:42:41Z</time></trkpt><trkpt lat="43.67233970762731" lon="11.140327542961685"><ele>154.0</ele><time>2026-04-19T17:42:42Z</time></trkpt><trkpt lat="43.6722897151779" lon="11.140448400305674"><ele>154.0</ele><time>2026-04-19T17:42:43Z</time></trkpt><trkpt lat="43.67224977841025" lon="11.140580666612639"><ele>154.0</ele><time>2026-04-19T17:42:44Z</time></trkpt><trkpt lat="43.67219154700814" lon="11.140715731783924"><ele>154.0</ele><time>2026-04-19T17:42:45Z</time></trkpt><trkpt lat="43.6721364057445" lon="11.140855463172088"><ele>154.0</ele><time>2026-04-19T17:42:46Z</time></trkpt><trkpt lat="43.67207673983983" lon="11.14099165103131"><ele>154.0</ele><time>2026-04-19T17:42:47Z</time></trkpt><trkpt lat="43.67202109957286" lon="11.141126423938559"><ele>155.2</ele><time>2026-04-19T17:42:48Z</time></trkpt><trkpt lat="43.671970689994474" lon="11.141263779630375"><ele>156.4</ele><time>2026-04-19T17:42:49Z</time></trkpt><trkpt lat="43.671917078587384" lon="11.141402710608133"><ele>157.6</ele><time>2026-04-19T17:42:50Z</time></trkpt><trkpt lat="43.67185692625324" lon="11.14153195453822"><ele>158.8</ele><time>2026-04-19T17:42:51Z</time></trkpt><trkpt lat="43.6718025465888" lon="11.141660716093444"><ele>160.0</ele><time>2026-04-19T17:42:52Z</time></trkpt><trkpt lat="43.67175889870404" lon="11.141793404872073"><ele>161.8</ele><time>2026-04-19T17:42:53Z</time></trkpt><trkpt lat="43.67170384655143" lon="11.141912641784275"><ele>163.6</ele><time>2026-04-19T17:42:54Z</time></trkpt><trkpt lat="43.67165076405104" lon="11.142041184337277"><ele>165.39999999999998</ele><time>2026-04-19T17:42:55Z</time></trkpt><trkpt lat="43.67159994784127" lon="11.142167785595172"><ele>167.2</ele><time>2026-04-19T17:42:56Z</time></trkpt><trkpt lat="43.67154372515729" lon="11.142300853308942"><ele>169.0</ele><time>2026-04-19T17:42:57Z</time></trkpt><trkpt lat="43.6714865005628" lon="11.142439898608323"><ele>170.6</ele><time>2026-04-19T17:42:58Z</time></trkpt><trkpt lat="43.67143026011609" lon="11.142570877040098"><ele>172.2</ele><time>2026-04-19T17:42:59Z</time></trkpt><trkpt lat="43.671370906691315" lon="11.142709259902354"><ele>173.79999999999998</ele><time>2026-04-19T17:43:00Z</time></trkpt><trkpt lat="43.671317129911536" lon="11.142843387343994"><ele>175.39999999999998</ele><time>2026-04-19T17:43:01Z</time></trkpt><trkpt lat="43.67125851086828" lon="11.142973731478188"><ele>177.0</ele><time>2026-04-19T17:43:02Z</time></trkpt><trkpt lat="43.671204421728824" lon="11.14310479750509"><ele>177.6</ele><time>2026-04-19T17:43:03Z</time></trkpt><trkpt lat="43.67115181215115" lon="11.14323952796522"><ele>178.2</ele><time>2026-04-19T17:43:04Z</time></trkpt><trkpt lat="43.67110146910965" lon="11.143358565072667"><ele>178.8</ele><time>2026-04-19T17:43:05Z</time></trkpt><trkpt lat="43.67104802256778" lon="11.143482272429152"><ele>179.4</ele><time>2026-04-19T17:43:06Z</time></trkpt><trkpt lat="43.670995991120755" lon="11.143604707786157"><ele>180.0</ele><time>2026-04-19T17:43:07Z</time></trkpt><trkpt lat="43.670927134139504" lon="11.143715995042383"><ele>181.6</ele><time>2026-04-19T17:43:08Z</time></trkpt><trkpt lat="43.67088873325194" lon="11.143855949989973"><ele>183.2</ele><time>2026-04-19T17:43:09Z</time></trkpt><trkpt lat="43.67083401555315" lon="11.143987159606562"><ele>184.8</ele><time>2026-04-19T17:43:10Z</time></trkpt><trkpt lat="43.67077462715202" lon="11.144118780498813"><ele>186.4</ele><time>2026-04-19T17:43:11Z</time></trkpt><trkpt lat="43.67072072147986" lon="11.144251151292206"><ele>188.0</ele><time>2026-04-19T17:43:11.999Z</time></trkpt><trkpt lat="43.67066707714529" lon="11.144378066324718"><ele>189.0</ele><time>2026-04-19T17:43:12.999Z</time></trkpt><trkpt lat="43.67061288539847" lon="11.144508378329201"><ele>190.0</ele><time>2026-04-19T17:43:13.999Z</time></trkpt><trkpt lat="43.67056101061856" lon="11.144632142391119"><ele>191.0</ele><time>2026-04-19T17:43:14.999Z</time></trkpt><trkpt lat="43.67050145133495" lon="11.144764690830337"><ele>192.0</ele><time>2026-04-19T17:43:15.999Z</time></trkpt><trkpt lat="43.67044824515228" lon="11.144902812909805"><ele>193.0</ele><time>2026-04-19T17:43:16.999Z</time></trkpt><trkpt lat="43.67039347298574" lon="11.145040727308785"><ele>194.2</ele><time>2026-04-19T17:43:17.999Z</time></trkpt><trkpt lat="43.6703367259101" lon="11.145170962023487"><ele>195.4</ele><time>2026-04-19T17:43:18.999Z</time></trkpt><trkpt lat="43.670277880886125" lon="11.145290721630019"><ele>196.6</ele><time>2026-04-19T17:43:19.999Z</time></trkpt><trkpt lat="43.670234228650315" lon="11.145410055951185"><ele>197.79999999999998</ele><time>2026-04-19T17:43:20.999Z</time></trkpt><trkpt lat="43.670190468700234" lon="11.145515948780918"><ele>199.0</ele><time>2026-04-19T17:43:21.999Z</time></trkpt><trkpt lat="43.67014087179211" lon="11.145619787455596"><ele>202.49999999999997</ele><time>2026-04-19T17:43:22.999Z</time></trkpt><trkpt lat="43.670099210610225" lon="11.145732530999851"><ele>206.0</ele><time>2026-04-19T17:43:23.999Z</time></trkpt><trkpt lat="43.6700169904267" lon="11.145867949981865"><ele>209.5</ele><time>2026-04-19T17:43:25.999Z</time></trkpt><trkpt lat="43.66996912185818" lon="11.14594921018605"><ele>213.0</ele><time>2026-04-19T17:43:26.999Z</time></trkpt><trkpt lat="43.669928246638506" lon="11.146028326473518"><ele>216.49999999999997</ele><time>2026-04-19T17:43:27.999Z</time></trkpt><trkpt lat="43.66987198804595" lon="11.146100793745857"><ele>220.0</ele><time>2026-04-19T17:43:28.999Z</time></trkpt><trkpt lat="43.66980536682167" lon="11.146170281481119"><ele>219.99999999999997</ele><time>2026-04-19T17:43:29.999Z</time></trkpt><trkpt lat="43.66973486462268" lon="11.14624227881175"><ele>220.0</ele><time>2026-04-19T17:43:30.999Z</time></trkpt><trkpt lat="43.66965990289168" lon="11.14629704537338"><ele>220.0</ele><time>2026-04-19T17:43:31.999Z</time></trkpt><trkpt lat="43.66959761961268" lon="11.146318760362814"><ele>220.0</ele><time>2026-04-19T17:43:32.999Z</time></trkpt><trkpt lat="43.66950685705406" lon="11.146332688951604"><ele>219.99999999999997</ele><time>2026-04-19T17:43:34.999Z</time></trkpt><trkpt lat="43.66942047389573" lon="11.146283292688972"><ele>220.0</ele><time>2026-04-19T17:43:36.999Z</time></trkpt><trkpt lat="43.66932350458495" lon="11.146210730477499"><ele>219.2</ele><time>2026-04-19T17:43:38.999Z</time></trkpt><trkpt lat="43.669214365061386" lon="11.146175900096813"><ele>218.4</ele><time>2026-04-19T17:43:40.999Z</time></trkpt><trkpt lat="43.66908503678862" lon="11.146147130422865"><ele>217.60000000000002</ele><time>2026-04-19T17:43:42.999Z</time></trkpt><trkpt lat="43.66899190119733" lon="11.146146967438986"><ele>216.8</ele><time>2026-04-19T17:43:43.999Z</time></trkpt><trkpt lat="43.66889783303034" lon="11.146168824229797"><ele>216.0</ele><time>2026-04-19T17:43:44.999Z</time></trkpt><trkpt lat="43.66880093784639" lon="11.146200336932537"><ele>216.0</ele><time>2026-04-19T17:43:45.999Z</time></trkpt><trkpt lat="43.66871257009121" lon="11.146236359981456"><ele>216.0</ele><time>2026-04-19T17:43:46.999Z</time></trkpt><trkpt lat="43.66862753548786" lon="11.146277040432578"><ele>216.0</ele><time>2026-04-19T17:43:47.999Z</time></trkpt><trkpt lat="43.66853771416384" lon="11.146327207234787"><ele>216.0</ele><time>2026-04-19T17:43:48.999Z</time></trkpt><trkpt lat="43.66846115899564" lon="11.146370964128444"><ele>216.0</ele><time>2026-04-19T17:43:49.999Z</time></trkpt><trkpt lat="43.668383166057026" lon="11.146412797423242"><ele>216.0</ele><time>2026-04-19T17:43:50.999Z</time></trkpt><trkpt lat="43.66831584102551" lon="11.146443936702223"><ele>213.4</ele><time>2026-04-19T17:43:51.999Z</time></trkpt><trkpt lat="43.668218258839424" lon="11.146479696471454"><ele>210.8</ele><time>2026-04-19T17:43:53.999Z</time></trkpt><trkpt lat="43.66812544263129" lon="11.14651562281775"><ele>208.20000000000002</ele><time>2026-04-19T17:43:54.999Z</time></trkpt><trkpt lat="43.66801370755694" lon="11.146475601935652"><ele>205.60000000000002</ele><time>2026-04-19T17:43:56.999Z</time></trkpt><trkpt lat="43.667929218507524" lon="11.146412192425434"><ele>203.0</ele><time>2026-04-19T17:43:58.999Z</time></trkpt><trkpt lat="43.66793394767811" lon="11.145800971459304"><ele>203.0</ele><time>2026-04-19T17:44:00.999Z</time></trkpt><trkpt lat="43.66788888752717" lon="11.145726198342164"><ele>203.0</ele><time>2026-04-19T17:44:01.999Z</time></trkpt><trkpt lat="43.667856112347415" lon="11.145642974118973"><ele>203.0</ele><time>2026-04-19T17:44:02.999Z</time></trkpt><trkpt lat="43.66781962462488" lon="11.145555446510302"><ele>203.0</ele><time>2026-04-19T17:44:03.999Z</time></trkpt><trkpt lat="43.667785075193116" lon="11.145468088749297"><ele>203.0</ele><time>2026-04-19T17:44:04.999Z</time></trkpt><trkpt lat="43.6677472069081" lon="11.145386140733626"><ele>203.0</ele><time>2026-04-19T17:44:05.999Z</time></trkpt><trkpt lat="43.66770541210901" lon="11.145302948191015"><ele>203.0</ele><time>2026-04-19T17:44:06.999Z</time></trkpt><trkpt lat="43.66766808894832" lon="11.14521921644571"><ele>198.8</ele><time>2026-04-19T17:44:07.999Z</time></trkpt><trkpt lat="43.66760561931799" lon="11.145086073533456"><ele>194.60000000000002</ele><time>2026-04-19T17:44:09.999Z</time></trkpt><trkpt lat="43.66754316098256" lon="11.14494465411007"><ele>190.39999999999998</ele><time>2026-04-19T17:44:11.999Z</time></trkpt><trkpt lat="43.66749977855834" lon="11.14485393380823"><ele>186.2</ele><time>2026-04-19T17:44:12.999Z</time></trkpt><trkpt lat="43.66746165386125" lon="11.144749189614203"><ele>182.0</ele><time>2026-04-19T17:44:13.999Z</time></trkpt><trkpt lat="43.66742999435222" lon="11.1446520484791"><ele>180.0</ele><time>2026-04-19T17:44:14.999Z</time></trkpt><trkpt lat="43.66739290752289" lon="11.144547624787474"><ele>178.0</ele><time>2026-04-19T17:44:15.999Z</time></trkpt><trkpt lat="43.66735711399383" lon="11.144449354954402"><ele>176.0</ele><time>2026-04-19T17:44:16.999Z</time></trkpt><trkpt lat="43.66731276219356" lon="11.144303424541997"><ele>174.0</ele><time>2026-04-19T17:44:18.999Z</time></trkpt><trkpt lat="43.66730181501886" lon="11.144198898512853"><ele>172.0</ele><time>2026-04-19T17:44:20.999Z</time></trkpt><trkpt lat="43.66724717803486" lon="11.1441497168136"><ele>170.0</ele><time>2026-04-19T17:44:46Z</time></trkpt><trkpt lat="43.66719900075191" lon="11.14407073687499"><ele>168.0</ele><time>2026-04-19T17:44:48Z</time></trkpt><trkpt lat="43.667199983276376" lon="11.143914157349691"><ele>166.0</ele><time>2026-04-19T17:44:49Z</time></trkpt><trkpt lat="43.66714386480212" lon="11.143768771152004"><ele>164.0</ele><time>2026-04-19T17:44:50Z</time></trkpt><trkpt lat="43.66709032311641" lon="11.143622221258097"><ele>162.0</ele><time>2026-04-19T17:44:51Z</time></trkpt><trkpt lat="43.66704746959454" lon="11.14351028208081"><ele>160.0</ele><time>2026-04-19T17:44:52Z</time></trkpt><trkpt lat="43.66699480178329" lon="11.143399345752979"><ele>159.5</ele><time>2026-04-19T17:44:53Z</time></trkpt><trkpt lat="43.666929571880765" lon="11.143334488533734"><ele>159.0</ele><time>2026-04-19T17:44:54Z</time></trkpt><trkpt lat="43.66688964538463" lon="11.143262619610883"><ele>158.5</ele><time>2026-04-19T17:44:55Z</time></trkpt><trkpt lat="43.666854042150135" lon="11.14318608857036"><ele>158.0</ele><time>2026-04-19T17:44:56Z</time></trkpt><trkpt lat="43.66682645390822" lon="11.143105144194882"><ele>157.5</ele><time>2026-04-19T17:44:57Z</time></trkpt><trkpt lat="43.66686890224202" lon="11.14299241221271"><ele>157.0</ele><time>2026-04-19T17:44:59Z</time></trkpt><trkpt lat="43.66694560460938" lon="11.14290918224952"><ele>156.4</ele><time>2026-04-19T17:45:01Z</time></trkpt><trkpt lat="43.66699186845702" lon="11.142730453844711"><ele>155.79999999999998</ele><time>2026-04-19T17:45:03Z</time></trkpt><trkpt lat="43.666978715035995" lon="11.142624576086488"><ele>155.2</ele><time>2026-04-19T17:45:04Z</time></trkpt><trkpt lat="43.66692882391173" lon="11.142517021408032"><ele>154.6</ele><time>2026-04-19T17:45:05Z</time></trkpt><trkpt lat="43.66686827847223" lon="11.142430220627809"><ele>154.0</ele><time>2026-04-19T17:45:06Z</time></trkpt><trkpt lat="43.666814645180544" lon="11.142367765753441"><ele>154.0</ele><time>2026-04-19T17:45:07Z</time></trkpt><trkpt lat="43.66673989271326" lon="11.14232035686792"><ele>154.0</ele><time>2026-04-19T17:45:08Z</time></trkpt><trkpt lat="43.66664776143471" lon="11.142337562893939"><ele>154.0</ele><time>2026-04-19T17:45:09Z</time></trkpt><trkpt lat="43.66659540374014" lon="11.142529469329753"><ele>154.0</ele><time>2026-04-19T17:45:10Z</time></trkpt><trkpt lat="43.666529053936024" lon="11.142613871763395"><ele>154.0</ele><time>2026-04-19T17:45:11Z</time></trkpt><trkpt lat="43.66645915653718" lon="11.142712690621968"><ele>154.0</ele><time>2026-04-19T17:45:11.999Z</time></trkpt><trkpt lat="43.66640119719435" lon="11.142819435568619"><ele>154.0</ele><time>2026-04-19T17:45:12.999Z</time></trkpt><trkpt lat="43.6663513544748" lon="11.142922591103142"><ele>154.0</ele><time>2026-04-19T17:45:13.999Z</time></trkpt><trkpt lat="43.66629267873744" lon="11.143024061036591"><ele>154.0</ele><time>2026-04-19T17:45:14.999Z</time></trkpt><trkpt lat="43.666222021729226" lon="11.14308889873562"><ele>154.0</ele><time>2026-04-19T17:45:15.999Z</time></trkpt><trkpt lat="43.66615907132928" lon="11.143119669086893"><ele>154.0</ele><time>2026-04-19T17:45:16.999Z</time></trkpt><trkpt lat="43.66607867595943" lon="11.14313197997442"><ele>151.83333333333334</ele><time>2026-04-19T17:45:17.999Z</time></trkpt><trkpt lat="43.66601113103881" lon="11.143054381662811"><ele>149.66666666666669</ele><time>2026-04-19T17:45:18.999Z</time></trkpt><trkpt lat="43.66594319024426" lon="11.14301444607346"><ele>147.5</ele><time>2026-04-19T17:45:19.999Z</time></trkpt><trkpt lat="43.66587718075931" lon="11.14299928941271"><ele>145.33333333333334</ele><time>2026-04-19T17:45:20.999Z</time></trkpt><trkpt lat="43.66579886934211" lon="11.142997126499798"><ele>143.16666666666666</ele><time>2026-04-19T17:45:21.999Z</time></trkpt><trkpt lat="43.66572811245495" lon="11.143041167370594"><ele>141.0</ele><time>2026-04-19T17:45:22.999Z</time></trkpt><trkpt lat="43.66563857980185" lon="11.143041075417822"><ele>141.0</ele><time>2026-04-19T17:45:23.999Z</time></trkpt><trkpt lat="43.6655491838386" lon="11.143021444257009"><ele>141.0</ele><time>2026-04-19T17:45:24.999Z</time></trkpt><trkpt lat="43.66546359088515" lon="11.14300840680476"><ele>141.0</ele><time>2026-04-19T17:45:25.999Z</time></trkpt><trkpt lat="43.66537150252589" lon="11.142992614432938"><ele>141.0</ele><time>2026-04-19T17:45:26.999Z</time></trkpt><trkpt lat="43.66526230403017" lon="11.142995153082788"><ele>141.0</ele><time>2026-04-19T17:45:27.999Z</time></trkpt><trkpt lat="43.66516341088574" lon="11.142981796633368"><ele>138.83333333333334</ele><time>2026-04-19T17:45:28.999Z</time></trkpt><trkpt lat="43.665077572122975" lon="11.142977656270281"><ele>136.66666666666666</ele><time>2026-04-19T17:45:29.999Z</time></trkpt><trkpt lat="43.6649867523576" lon="11.142967309689563"><ele>134.5</ele><time>2026-04-19T17:45:30.999Z</time></trkpt><trkpt lat="43.66489663054093" lon="11.142994461441566"><ele>132.33333333333331</ele><time>2026-04-19T17:45:31.999Z</time></trkpt><trkpt lat="43.66481579024812" lon="11.143029292347885"><ele>130.16666666666666</ele><time>2026-04-19T17:45:32.999Z</time></trkpt><trkpt lat="43.66472868680853" lon="11.14305843722285"><ele>128.0</ele><time>2026-04-19T17:45:33.999Z</time></trkpt><trkpt lat="43.66462939417322" lon="11.143091660606004"><ele>127.99999999999999</ele><time>2026-04-19T17:45:34.999Z</time></trkpt><trkpt lat="43.664527785254535" lon="11.14312610158163"><ele>128.0</ele><time>2026-04-19T17:45:35.999Z</time></trkpt><trkpt lat="43.66445467207078" lon="11.143149681617713"><ele>128.0</ele><time>2026-04-19T17:45:36.999Z</time></trkpt><trkpt lat="43.66435388587729" lon="11.143109127499166"><ele>128.0</ele><time>2026-04-19T17:45:38.999Z</time></trkpt><trkpt lat="43.6643511918236" lon="11.14300241944894"><ele>127.99999999999999</ele><time>2026-04-19T17:45:39.999Z</time></trkpt><trkpt lat="43.664348845273096" lon="11.142897900254466"><ele>128.0</ele><time>2026-04-19T17:45:40.999Z</time></trkpt><trkpt lat="43.664343559166916" lon="11.142806515182182"><ele>126.80000000000001</ele><time>2026-04-19T17:45:41.999Z</time></trkpt><trkpt lat="43.66431780240539" lon="11.142671250436962"><ele>125.60000000000001</ele><time>2026-04-19T17:45:43.999Z</time></trkpt><trkpt lat="43.66422705558432" lon="11.142589636635892"><ele>124.39999999999999</ele><time>2026-04-19T17:45:45.999Z</time></trkpt><trkpt lat="43.66416022685259" lon="11.142583475425429"><ele>123.19999999999999</ele><time>2026-04-19T17:45:47.999Z</time></trkpt><trkpt lat="43.664196449628676" lon="11.142438275320291"><ele>122.0</ele><time>2026-04-19T17:45:50.999Z</time></trkpt><trkpt lat="43.664262611467976" lon="11.142337232291478"><ele>119.0</ele><time>2026-04-19T17:45:52.999Z</time></trkpt><trkpt lat="43.664230799205484" lon="11.142161330807577"><ele>115.99999999999999</ele><time>2026-04-19T17:45:54.999Z</time></trkpt><trkpt lat="43.66418811853595" lon="11.142027024119933"><ele>112.99999999999999</ele><time>2026-04-19T17:45:56.999Z</time></trkpt><trkpt lat="43.66424336530471" lon="11.141956526110551"><ele>110.0</ele><time>2026-04-19T17:45:57.999Z</time></trkpt><trkpt lat="43.66431462863519" lon="11.141897757981129"><ele>107.0</ele><time>2026-04-19T17:45:58.999Z</time></trkpt><trkpt lat="43.66440184491172" lon="11.141860081388216"><ele>108.16666666666666</ele><time>2026-04-19T17:45:59.999Z</time></trkpt><trkpt lat="43.66446897580799" lon="11.141862553650279"><ele>109.33333333333333</ele><time>2026-04-19T17:46:00.999Z</time></trkpt><trkpt lat="43.66454781033743" lon="11.14185219755774"><ele>110.5</ele><time>2026-04-19T17:46:01.999Z</time></trkpt><trkpt lat="43.66462617281371" lon="11.141824805861464"><ele>111.66666666666666</ele><time>2026-04-19T17:46:02.999Z</time></trkpt><trkpt lat="43.664720717463396" lon="11.1417745766513"><ele>112.83333333333333</ele><time>2026-04-19T17:46:03.999Z</time></trkpt><trkpt lat="43.66482489088836" lon="11.141719821087822"><ele>114.0</ele><time>2026-04-19T17:46:04.999Z</time></trkpt><trkpt lat="43.66490762257924" lon="11.14165085772383"><ele>114.0</ele><time>2026-04-19T17:46:05.999Z</time></trkpt><trkpt lat="43.66498164576147" lon="11.14157876190006"><ele>114.0</ele><time>2026-04-19T17:46:06.999Z</time></trkpt><trkpt lat="43.66504353897877" lon="11.141495907022584"><ele>114.0</ele><time>2026-04-19T17:46:07.999Z</time></trkpt><trkpt lat="43.66514296703766" lon="11.141407908664053"><ele>114.0</ele><time>2026-04-19T17:46:08.999Z</time></trkpt><trkpt lat="43.6652329688831" lon="11.141309478196987"><ele>114.0</ele><time>2026-04-19T17:46:09.999Z</time></trkpt><trkpt lat="43.665281409719995" lon="11.141207135901512"><ele>114.16666666666667</ele><time>2026-04-19T17:46:10.999Z</time></trkpt><trkpt lat="43.66533787674058" lon="11.141070253392009"><ele>114.33333333333334</ele><time>2026-04-19T17:46:12.999Z</time></trkpt><trkpt lat="43.66538698703183" lon="11.141010536563552"><ele>114.5</ele><time>2026-04-19T17:46:15.999Z</time></trkpt><trkpt lat="43.66542967502682" lon="11.14092787574475"><ele>114.66666666666667</ele><time>2026-04-19T17:46:30.999Z</time></trkpt><trkpt lat="43.66549913124008" lon="11.140861713135097"><ele>114.83333333333334</ele><time>2026-04-19T17:46:32.999Z</time></trkpt><trkpt lat="43.6655874936891" lon="11.140804695480579"><ele>115.0</ele><time>2026-04-19T17:46:35Z</time></trkpt><trkpt lat="43.66569739391082" lon="11.140717434080011"><ele>112.16666666666667</ele><time>2026-04-19T17:46:37Z</time></trkpt><trkpt lat="43.665752466245515" lon="11.140670310713956"><ele>109.33333333333334</ele><time>2026-04-19T17:46:38Z</time></trkpt><trkpt lat="43.66586077173488" lon="11.140567347917955"><ele>106.5</ele><time>2026-04-19T17:46:40Z</time></trkpt><trkpt lat="43.665913252625735" lon="11.140510339101597"><ele>103.66666666666666</ele><time>2026-04-19T17:46:41Z</time></trkpt><trkpt lat="43.66598486420586" lon="11.140440227709687"><ele>100.83333333333333</ele><time>2026-04-19T17:46:42Z</time></trkpt><trkpt lat="43.66605204765323" lon="11.140383626204148"><ele>98.0</ele><time>2026-04-19T17:46:43Z</time></trkpt><trkpt lat="43.66611002345785" lon="11.140329360837356"><ele>100.33333333333333</ele><time>2026-04-19T17:46:44Z</time></trkpt><trkpt lat="43.6661691619824" lon="11.1402641221559"><ele>102.66666666666666</ele><time>2026-04-19T17:46:45Z</time></trkpt><trkpt lat="43.66624124522736" lon="11.140204990305593"><ele>105.0</ele><time>2026-04-19T17:46:46Z</time></trkpt><trkpt lat="43.666310353840274" lon="11.140130854461619"><ele>107.33333333333334</ele><time>2026-04-19T17:46:47Z</time></trkpt><trkpt lat="43.66637778069245" lon="11.140059610927816"><ele>109.66666666666667</ele><time>2026-04-19T17:46:48Z</time></trkpt><trkpt lat="43.666447338229254" lon="11.13998560060016"><ele>112.0</ele><time>2026-04-19T17:46:49Z</time></trkpt><trkpt lat="43.66651240422737" lon="11.1399165006538"><ele>109.66666666666667</ele><time>2026-04-19T17:46:50Z</time></trkpt><trkpt lat="43.666569090014264" lon="11.139857405053519"><ele>107.33333333333334</ele><time>2026-04-19T17:46:51Z</time></trkpt><trkpt lat="43.66664836160038" lon="11.13974270058264"><ele>105.0</ele><time>2026-04-19T17:46:53Z</time></trkpt><trkpt lat="43.666684654096535" lon="11.139666495591829"><ele>102.66666666666666</ele><time>2026-04-19T17:46:54Z</time></trkpt><trkpt lat="43.66669884602289" lon="11.139559532851933"><ele>100.33333333333333</ele><time>2026-04-19T17:46:55Z</time></trkpt><trkpt lat="43.666736866683706" lon="11.139464185622566"><ele>98.0</ele><time>2026-04-19T17:46:56Z</time></trkpt><trkpt lat="43.66676677215167" lon="11.13936737060629"><ele>98.0</ele><time>2026-04-19T17:46:57Z</time></trkpt><trkpt lat="43.666786507660696" lon="11.139272425237245"><ele>98.0</ele><time>2026-04-19T17:46:58Z</time></trkpt><trkpt lat="43.6667768489897" lon="11.139173569968733"><ele>98.0</ele><time>2026-04-19T17:46:59Z</time></trkpt><trkpt lat="43.66676537567589" lon="11.139046086429936"><ele>98.0</ele><time>2026-04-19T17:47:00Z</time></trkpt><trkpt lat="43.666729035940065" lon="11.138874670319291"><ele>98.0</ele><time>2026-04-19T17:47:01Z</time></trkpt><trkpt lat="43.666677164541724" lon="11.138695195299743"><ele>96.0</ele><time>2026-04-19T17:47:02Z</time></trkpt><trkpt lat="43.66662495780183" lon="11.138530757242748"><ele>94.0</ele><time>2026-04-19T17:47:03Z</time></trkpt><trkpt lat="43.66659096679035" lon="11.138374642443484"><ele>92.0</ele><time>2026-04-19T17:47:04Z</time></trkpt><trkpt lat="43.66655272529979" lon="11.138220768021032"><ele>90.0</ele><time>2026-04-19T17:47:05Z</time></trkpt><trkpt lat="43.66652104564483" lon="11.13807296121866"><ele>89.75</ele><time>2026-04-19T17:47:06Z</time></trkpt><trkpt lat="43.66649073369841" lon="11.137936036258722"><ele>89.5</ele><time>2026-04-19T17:47:07Z</time></trkpt><trkpt lat="43.66645534811954" lon="11.137779804043197"><ele>89.25</ele><time>2026-04-19T17:47:08Z</time></trkpt><trkpt lat="43.666413636949834" lon="11.137622127732621"><ele>89.0</ele><time>2026-04-19T17:47:09Z</time></trkpt><trkpt lat="43.66638962668312" lon="11.137451865226135"><ele>88.75</ele><time>2026-04-19T17:47:10Z</time></trkpt><trkpt lat="43.66633825209434" lon="11.137286496672504"><ele>88.5</ele><time>2026-04-19T17:47:11Z</time></trkpt><trkpt lat="43.66630135978598" lon="11.137125610352337"><ele>88.25</ele><time>2026-04-19T17:47:12Z</time></trkpt><trkpt lat="43.6662522683475" lon="11.136956427740728"><ele>88.0</ele><time>2026-04-19T17:47:13Z</time></trkpt><trkpt lat="43.66622313797325" lon="11.136774980630895"><ele>88.0</ele><time>2026-04-19T17:47:13.999Z</time></trkpt><trkpt lat="43.66618855524564" lon="11.13660388980998"><ele>88.0</ele><time>2026-04-19T17:47:14.999Z</time></trkpt><trkpt lat="43.66613603952048" lon="11.136428422740575"><ele>88.0</ele><time>2026-04-19T17:47:15.999Z</time></trkpt><trkpt lat="43.66611418406866" lon="11.136267119854478"><ele>88.0</ele><time>2026-04-19T17:47:16.999Z</time></trkpt><trkpt lat="43.666080441576185" lon="11.13611911389081"><ele>88.0</ele><time>2026-04-19T17:47:17.999Z</time></trkpt><trkpt lat="43.666050828075534" lon="11.13598920276318"><ele>88.0</ele><time>2026-04-19T17:47:18.999Z</time></trkpt><trkpt lat="43.666029140631494" lon="11.13589406165454"><ele>88.0</ele><time>2026-04-19T17:47:19.999Z</time></trkpt><trkpt lat="43.666000542322166" lon="11.13576860322656"><ele>88.0</ele><time>2026-04-19T17:47:21.999Z</time></trkpt><trkpt lat="43.66605942678672" lon="11.135732502028832"><ele>88.0</ele><time>2026-04-19T17:47:26.999Z</time></trkpt><trkpt lat="43.66612400565148" lon="11.135708070483526"><ele>88.0</ele><time>2026-04-19T17:47:28.999Z</time></trkpt><trkpt lat="43.66618821216241" lon="11.135714501471334"><ele>88.0</ele><time>2026-04-19T17:47:31.999Z</time></trkpt><trkpt lat="43.66630958848099" lon="11.13568591265726"><ele>88.0</ele><time>2026-04-19T17:48:29.999Z</time></trkpt><trkpt lat="43.66637871571166" lon="11.135655580572937"><ele>88.0</ele><time>2026-04-19T17:48:30.999Z</time></trkpt><trkpt lat="43.66645820568579" lon="11.13560433698389"><ele>88.0</ele><time>2026-04-19T17:48:31.999Z</time></trkpt><trkpt lat="43.66654876673027" lon="11.135577627031184"><ele>88.0</ele><time>2026-04-19T17:48:32.999Z</time></trkpt><trkpt lat="43.66663129142648" lon="11.135566429511249"><ele>88.0</ele><time>2026-04-19T17:48:33.999Z</time></trkpt><trkpt lat="43.66671642119318" lon="11.13557516724973"><ele>88.0</ele><time>2026-04-19T17:48:34.999Z</time></trkpt><trkpt lat="43.66680554384758" lon="11.135578213035442"><ele>88.0</ele><time>2026-04-19T17:48:35.999Z</time></trkpt><trkpt lat="43.66689276365567" lon="11.135575437696808"><ele>88.0</ele><time>2026-04-19T17:48:36.999Z</time></trkpt><trkpt lat="43.666981356598264" lon="11.135568431473054"><ele>88.0</ele><time>2026-04-19T17:48:37.999Z</time></trkpt><trkpt lat="43.66707205128432" lon="11.135551078961955"><ele>88.0</ele><time>2026-04-19T17:48:38.999Z</time></trkpt><trkpt lat="43.667166392884766" lon="11.135543190904267"><ele>88.0</ele><time>2026-04-19T17:48:40Z</time></trkpt><trkpt lat="43.667255408082426" lon="11.135537709608197"><ele>88.0</ele><time>2026-04-19T17:48:41Z</time></trkpt><trkpt lat="43.667328328519645" lon="11.135539236833326"><ele>88.0</ele><time>2026-04-19T17:48:42Z</time></trkpt><trkpt lat="43.66740347550939" lon="11.13553720705858"><ele>88.0</ele><time>2026-04-19T17:48:43Z</time></trkpt><trkpt lat="43.66748128474318" lon="11.135532166625822"><ele>88.0</ele><time>2026-04-19T17:48:44Z</time></trkpt><trkpt lat="43.66756267475013" lon="11.135530272096327"><ele>88.0</ele><time>2026-04-19T17:48:45Z</time></trkpt><trkpt lat="43.66765232513893" lon="11.135531580965143"><ele>88.0</ele><time>2026-04-19T17:48:46Z</time></trkpt><trkpt lat="43.66774588778793" lon="11.135521739200037"><ele>88.0</ele><time>2026-04-19T17:48:47Z</time></trkpt><trkpt lat="43.66784154235506" lon="11.135515206408177"><ele>88.0</ele><time>2026-04-19T17:48:48Z</time></trkpt><trkpt lat="43.6679342910106" lon="11.13549981655109"><ele>88.0</ele><time>2026-04-19T17:48:49Z</time></trkpt><trkpt lat="43.66802325612671" lon="11.135477927736758"><ele>88.0</ele><time>2026-04-19T17:48:50Z</time></trkpt><trkpt lat="43.66811521766157" lon="11.135436171856856"><ele>87.80000000000001</ele><time>2026-04-19T17:48:51Z</time></trkpt><trkpt lat="43.66822803848965" lon="11.135403015589565"><ele>87.6</ele><time>2026-04-19T17:48:52Z</time></trkpt><trkpt lat="43.66831791128458" lon="11.135335301740634"><ele>87.4</ele><time>2026-04-19T17:48:53Z</time></trkpt><trkpt lat="43.66840980468884" lon="11.135277764082272"><ele>87.19999999999999</ele><time>2026-04-19T17:48:54Z</time></trkpt><trkpt lat="43.66849327725864" lon="11.135212794154418"><ele>87.0</ele><time>2026-04-19T17:48:55Z</time></trkpt><trkpt lat="43.668565584214676" lon="11.135138462156414"><ele>87.0</ele><time>2026-04-19T17:48:56Z</time></trkpt><trkpt lat="43.66864004246232" lon="11.135072469724673"><ele>87.0</ele><time>2026-04-19T17:48:57Z</time></trkpt><trkpt lat="43.66870514279061" lon="11.135012705539644"><ele>87.0</ele><time>2026-04-19T17:48:58Z</time></trkpt><trkpt lat="43.66877766095276" lon="11.134945066837894"><ele>87.0</ele><time>2026-04-19T17:48:59Z</time></trkpt><trkpt lat="43.66884991767457" lon="11.134880587261321"><ele>87.0</ele><time>2026-04-19T17:49:00Z</time></trkpt><trkpt lat="43.66891819491118" lon="11.134810397876269"><ele>87.0</ele><time>2026-04-19T17:49:01Z</time></trkpt><trkpt lat="43.66898102125076" lon="11.13474679646154"><ele>87.0</ele><time>2026-04-19T17:49:02Z</time></trkpt><trkpt lat="43.66904880910457" lon="11.13468259568856"><ele>87.0</ele><time>2026-04-19T17:49:03Z</time></trkpt><trkpt lat="43.66911499709563" lon="11.134621569563476"><ele>87.0</ele><time>2026-04-19T17:49:04Z</time></trkpt><trkpt lat="43.669180211295966" lon="11.134556026254044"><ele>87.0</ele><time>2026-04-19T17:49:05Z</time></trkpt><trkpt lat="43.66925225259346" lon="11.134491297446198"><ele>87.0</ele><time>2026-04-19T17:49:06Z</time></trkpt><trkpt lat="43.669327555446415" lon="11.134425939839716"><ele>87.0</ele><time>2026-04-19T17:49:07Z</time></trkpt><trkpt lat="43.66940661056779" lon="11.134356576922588"><ele>86.8</ele><time>2026-04-19T17:49:08Z</time></trkpt><trkpt lat="43.66948334458526" lon="11.134270708420393"><ele>86.6</ele><time>2026-04-19T17:49:09Z</time></trkpt><trkpt lat="43.669561665902776" lon="11.134179480781496"><ele>86.39999999999999</ele><time>2026-04-19T17:49:10Z</time></trkpt><trkpt lat="43.669645010698744" lon="11.134095790466233"><ele>86.19999999999999</ele><time>2026-04-19T17:49:11Z</time></trkpt><trkpt lat="43.669736506977486" lon="11.134007162133338"><ele>86.0</ele><time>2026-04-19T17:49:12Z</time></trkpt><trkpt lat="43.669833046870004" lon="11.133906236783462"><ele>86.0</ele><time>2026-04-19T17:49:13Z</time></trkpt><trkpt lat="43.66992602568908" lon="11.133807176214313"><ele>86.0</ele><time>2026-04-19T17:49:13.999Z</time></trkpt><trkpt lat="43.67001162419978" lon="11.133710678892902"><ele>86.0</ele><time>2026-04-19T17:49:14.999Z</time></trkpt><trkpt lat="43.67009734756508" lon="11.133618185462606"><ele>86.0</ele><time>2026-04-19T17:49:15.999Z</time></trkpt><trkpt lat="43.67018221686959" lon="11.133522348422435"><ele>86.0</ele><time>2026-04-19T17:49:16.999Z</time></trkpt><trkpt lat="43.67025580309349" lon="11.133443770861271"><ele>86.00000000000001</ele><time>2026-04-19T17:49:17.999Z</time></trkpt><trkpt lat="43.67033298984767" lon="11.133375253635764"><ele>86.0</ele><time>2026-04-19T17:49:19.999Z</time></trkpt><trkpt lat="43.67039240481762" lon="11.133309943876457"><ele>86.0</ele><time>2026-04-19T17:49:58.999Z</time></trkpt><trkpt lat="43.670418869584694" lon="11.133229478204164"><ele>86.0</ele><time>2026-04-19T17:53:10Z</time></trkpt><trkpt lat="43.67037030991569" lon="11.13331679194744"><ele>86.0</ele><time>2026-04-19T17:53:13Z</time></trkpt><trkpt lat="43.67031761563808" lon="11.133268588898323"><ele>86.00000000000001</ele><time>2026-04-19T17:53:24.999Z</time></trkpt><trkpt lat="43.670286137475856" lon="11.133186295434964"><ele>86.0</ele><time>2026-04-19T17:53:27.999Z</time></trkpt><trkpt lat="43.67023262388717" lon="11.133111832808424"><ele>86.16666666666667</ele><time>2026-04-19T17:53:31.999Z</time></trkpt><trkpt lat="43.67015000898788" lon="11.133093376141158"><ele>86.33333333333334</ele><time>2026-04-19T17:53:34.999Z</time></trkpt><trkpt lat="43.670083303899794" lon="11.13306393732176"><ele>86.5</ele><time>2026-04-19T17:53:37.999Z</time></trkpt><trkpt lat="43.670006811416705" lon="11.13303859641928"><ele>86.66666666666667</ele><time>2026-04-19T17:53:39.999Z</time></trkpt><trkpt lat="43.66989868921174" lon="11.133021165549403"><ele>86.83333333333333</ele><time>2026-04-19T17:53:41.999Z</time></trkpt><trkpt lat="43.6698069847095" lon="11.133059822652267"><ele>87.0</ele><time>2026-04-19T17:53:43.999Z</time></trkpt><trkpt lat="43.66972569602727" lon="11.133131962280073"><ele>87.0</ele><time>2026-04-19T17:53:45.999Z</time></trkpt><trkpt lat="43.66963918567893" lon="11.133211565968347"><ele>87.0</ele><time>2026-04-19T17:53:47.999Z</time></trkpt><trkpt lat="43.66958994288192" lon="11.133270658856299"><ele>87.0</ele><time>2026-04-19T17:53:48.999Z</time></trkpt><trkpt lat="43.66949991347203" lon="11.133327499632447"><ele>87.0</ele><time>2026-04-19T17:53:50.999Z</time></trkpt><trkpt lat="43.66943195747737" lon="11.133314330718878"><ele>87.0</ele><time>2026-04-19T17:53:52.999Z</time></trkpt><trkpt lat="43.66938742374029" lon="11.133224354819681"><ele>87.0</ele><time>2026-04-19T17:53:54.999Z</time></trkpt><trkpt lat="43.66933540385093" lon="11.13310014044675"><ele>87.0</ele><time>2026-04-19T17:53:56.999Z</time></trkpt><trkpt lat="43.66928973145331" lon="11.133007522300764"><ele>87.0</ele><time>2026-04-19T17:53:58.999Z</time></trkpt><trkpt lat="43.669244603196" lon="11.132902384171077"><ele>87.0</ele><time>2026-04-19T17:54:00.999Z</time></trkpt><trkpt lat="43.66919735350118" lon="11.13281302304639"><ele>87.0</ele><time>2026-04-19T17:54:02.999Z</time></trkpt><trkpt lat="43.66914078340846" lon="11.132707764506556"><ele>87.0</ele><time>2026-04-19T17:54:04.999Z</time></trkpt><trkpt lat="43.66906423195318" lon="11.132581452938718"><ele>87.0</ele><time>2026-04-19T17:54:06.999Z</time></trkpt><trkpt lat="43.66902378723137" lon="11.132513804324446"><ele>87.0</ele><time>2026-04-19T17:54:07.999Z</time></trkpt><trkpt lat="43.66898022503148" lon="11.132443284279999"><ele>87.0</ele><time>2026-04-19T17:54:08.999Z</time></trkpt><trkpt lat="43.668939680033986" lon="11.13236143805836"><ele>87.0</ele><time>2026-04-19T17:54:09.999Z</time></trkpt><trkpt lat="43.66889844092383" lon="11.132282841013033"><ele>87.0</ele><time>2026-04-19T17:54:10.999Z</time></trkpt><trkpt lat="43.66882964682925" lon="11.132151869735422"><ele>87.0</ele><time>2026-04-19T17:54:12.999Z</time></trkpt><trkpt lat="43.66875750894204" lon="11.132027910533525"><ele>87.0</ele><time>2026-04-19T17:54:14.999Z</time></trkpt><trkpt lat="43.66871901836268" lon="11.131941391984233"><ele>87.0</ele><time>2026-04-19T17:54:15.999Z</time></trkpt><trkpt lat="43.66864086611846" lon="11.131791775087546"><ele>87.0</ele><time>2026-04-19T17:54:17.999Z</time></trkpt><trkpt lat="43.66859598132057" lon="11.131708312028909"><ele>87.0</ele><time>2026-04-19T17:54:18.999Z</time></trkpt><trkpt lat="43.668539947082444" lon="11.131604998115092"><ele>87.0</ele><time>2026-04-19T17:54:19.999Z</time></trkpt><trkpt lat="43.66844827206518" lon="11.131558813950386"><ele>87.14285714285714</ele><time>2026-04-19T17:54:20.999Z</time></trkpt><trkpt lat="43.66840645678176" lon="11.131480264357666"><ele>87.28571428571429</ele><time>2026-04-19T17:54:21.999Z</time></trkpt><trkpt lat="43.668363297401015" lon="11.131408890831512"><ele>87.42857142857143</ele><time>2026-04-19T17:54:22.999Z</time></trkpt><trkpt lat="43.66831624652594" lon="11.131332160849965"><ele>87.57142857142857</ele><time>2026-04-19T17:54:23.999Z</time></trkpt><trkpt lat="43.66831135022644" lon="11.131199490740544"><ele>87.71428571428571</ele><time>2026-04-19T17:54:24.999Z</time></trkpt><trkpt lat="43.66827712258065" lon="11.1311221409956"><ele>87.85714285714286</ele><time>2026-04-19T17:54:25.999Z</time></trkpt><trkpt lat="43.66823969143694" lon="11.131047178260818"><ele>88.0</ele><time>2026-04-19T17:54:26.999Z</time></trkpt><trkpt lat="43.66817406727579" lon="11.13092227334114"><ele>88.0</ele><time>2026-04-19T17:54:28.999Z</time></trkpt><trkpt lat="43.6681050090311" lon="11.130807200312738"><ele>88.0</ele><time>2026-04-19T17:54:30.999Z</time></trkpt><trkpt lat="43.66805962638572" lon="11.13073780407861"><ele>88.0</ele><time>2026-04-19T17:54:31.999Z</time></trkpt><trkpt lat="43.66800421933333" lon="11.130607516510509"><ele>88.0</ele><time>2026-04-19T17:54:33.999Z</time></trkpt><trkpt lat="43.6680073347153" lon="11.130470413524014"><ele>88.0</ele><time>2026-04-19T17:54:35.999Z</time></trkpt><trkpt lat="43.66804391417972" lon="11.130300047864392"><ele>88.5</ele><time>2026-04-19T17:54:37.999Z</time></trkpt><trkpt lat="43.668070982280064" lon="11.130220402888265"><ele>89.0</ele><time>2026-04-19T17:54:38.999Z</time></trkpt><trkpt lat="43.668101773373955" lon="11.1301287284558"><ele>89.5</ele><time>2026-04-19T17:54:39.999Z</time></trkpt><trkpt lat="43.66812445283832" lon="11.130011950835414"><ele>90.0</ele><time>2026-04-19T17:54:40.999Z</time></trkpt><trkpt lat="43.6681438821294" lon="11.12991791159589"><ele>90.5</ele><time>2026-04-19T17:54:41.999Z</time></trkpt><trkpt lat="43.66813864777353" lon="11.129756405204828"><ele>91.0</ele><time>2026-04-19T17:54:43.999Z</time></trkpt><trkpt lat="43.66807700404214" lon="11.129646598081813"><ele>91.0</ele><time>2026-04-19T17:54:45.999Z</time></trkpt><trkpt lat="43.66798902444129" lon="11.12967125253193"><ele>91.0</ele><time>2026-04-19T17:55:07Z</time></trkpt><trkpt lat="43.66793815945248" lon="11.129796641971652"><ele>91.0</ele><time>2026-04-19T17:55:09Z</time></trkpt><trkpt lat="43.667897383186805" lon="11.129875117268167"><ele>91.0</ele><time>2026-04-19T17:55:10Z</time></trkpt><trkpt lat="43.66785102113989" lon="11.129952749832608"><ele>91.0</ele><time>2026-04-19T17:55:11Z</time></trkpt><trkpt lat="43.66779199042997" lon="11.130013530645343"><ele>91.0</ele><time>2026-04-19T17:55:12Z</time></trkpt><trkpt lat="43.66772279507264" lon="11.130090281435645"><ele>91.42857142857143</ele><time>2026-04-19T17:55:13Z</time></trkpt><trkpt lat="43.66766663640189" lon="11.130165790763353"><ele>91.85714285714286</ele><time>2026-04-19T17:55:14Z</time></trkpt><trkpt lat="43.66760241292895" lon="11.130231726960314"><ele>92.28571428571428</ele><time>2026-04-19T17:55:15Z</time></trkpt><trkpt lat="43.66754749562418" lon="11.130286854609071"><ele>92.71428571428572</ele><time>2026-04-19T17:55:16Z</time></trkpt><trkpt lat="43.667494865808536" lon="11.13034976092052"><ele>93.14285714285714</ele><time>2026-04-19T17:55:17Z</time></trkpt><trkpt lat="43.667440428297056" lon="11.130403167292906"><ele>93.57142857142857</ele><time>2026-04-19T17:55:18Z</time></trkpt><trkpt lat="43.66739259672116" lon="11.130482899296277"><ele>94.0</ele><time>2026-04-19T17:55:19Z</time></trkpt><trkpt lat="43.66734336586946" lon="11.130569535553734"><ele>94.0</ele><time>2026-04-19T17:55:20Z</time></trkpt><trkpt lat="43.667294302928774" lon="11.130655876219597"><ele>94.0</ele><time>2026-04-19T17:55:21Z</time></trkpt><trkpt lat="43.66725858519344" lon="11.130761867084889"><ele>94.0</ele><time>2026-04-19T17:55:22Z</time></trkpt><trkpt lat="43.66720505221112" lon="11.130850130435316"><ele>94.0</ele><time>2026-04-19T17:55:23Z</time></trkpt><trkpt lat="43.66715045214432" lon="11.130937183522118"><ele>94.0</ele><time>2026-04-19T17:55:24Z</time></trkpt><trkpt lat="43.66710588575391" lon="11.131014512164318"><ele>94.0</ele><time>2026-04-19T17:55:24.999Z</time></trkpt><trkpt lat="43.6670576811091" lon="11.131097475152611"><ele>94.16666666666666</ele><time>2026-04-19T17:55:25.999Z</time></trkpt><trkpt lat="43.6670027675303" lon="11.131180181450896"><ele>94.33333333333333</ele><time>2026-04-19T17:55:26.999Z</time></trkpt><trkpt lat="43.666947190854735" lon="11.131270031723849"><ele>94.5</ele><time>2026-04-19T17:55:27.999Z</time></trkpt><trkpt lat="43.66689571636155" lon="11.131364353980857"><ele>94.66666666666667</ele><time>2026-04-19T17:55:28.999Z</time></trkpt><trkpt lat="43.66684661511077" lon="11.131449355755175"><ele>94.83333333333334</ele><time>2026-04-19T17:55:29.999Z</time></trkpt><trkpt lat="43.66678834112804" lon="11.131517652726725"><ele>95.0</ele><time>2026-04-19T17:55:30.999Z</time></trkpt><trkpt lat="43.66673486239478" lon="11.131608259897265"><ele>94.33333333333334</ele><time>2026-04-19T17:55:31.999Z</time></trkpt><trkpt lat="43.66668430689862" lon="11.13169389638718"><ele>93.66666666666667</ele><time>2026-04-19T17:55:32.999Z</time></trkpt><trkpt lat="43.666638304774644" lon="11.131771819820928"><ele>93.0</ele><time>2026-04-19T17:55:33.999Z</time></trkpt><trkpt lat="43.6665863971028" lon="11.131859746727223"><ele>92.33333333333333</ele><time>2026-04-19T17:55:34.999Z</time></trkpt><trkpt lat="43.666544202370694" lon="11.13196614805102"><ele>91.66666666666666</ele><time>2026-04-19T17:55:35.999Z</time></trkpt><trkpt lat="43.66648736247095" lon="11.132058679595275"><ele>91.0</ele><time>2026-04-19T17:55:36.999Z</time></trkpt><trkpt lat="43.66642068786329" lon="11.132140270502582"><ele>91.0</ele><time>2026-04-19T17:55:37.999Z</time></trkpt><trkpt lat="43.666375115227154" lon="11.13225300469665"><ele>91.0</ele><time>2026-04-19T17:55:38.999Z</time></trkpt><trkpt lat="43.666323349521974" lon="11.13233799226741"><ele>91.0</ele><time>2026-04-19T17:55:39.999Z</time></trkpt><trkpt lat="43.666274932116416" lon="11.132418327532625"><ele>91.0</ele><time>2026-04-19T17:55:40.999Z</time></trkpt><trkpt lat="43.66622839301161" lon="11.132496858224293"><ele>91.0</ele><time>2026-04-19T17:55:41.999Z</time></trkpt><trkpt lat="43.666181979321564" lon="11.132568592410127"><ele>91.0</ele><time>2026-04-19T17:55:42.999Z</time></trkpt><trkpt lat="43.66614284917298" lon="11.132641339605096"><ele>91.33333333333333</ele><time>2026-04-19T17:55:43.999Z</time></trkpt><trkpt lat="43.666101013924504" lon="11.132715067639653"><ele>91.66666666666666</ele><time>2026-04-19T17:55:44.999Z</time></trkpt><trkpt lat="43.66603469391931" lon="11.132820836554354"><ele>92.0</ele><time>2026-04-19T17:55:46.999Z</time></trkpt><trkpt lat="43.665973256314096" lon="11.132912567646562"><ele>92.33333333333333</ele><time>2026-04-19T17:55:48.999Z</time></trkpt><trkpt lat="43.665909374213335" lon="11.133006997933647"><ele>92.66666666666667</ele><time>2026-04-19T17:57:16Z</time></trkpt><trkpt lat="43.66584894242713" lon="11.133110291117287"><ele>93.0</ele><time>2026-04-19T17:57:18Z</time></trkpt><trkpt lat="43.66578879488512" lon="11.133213161577867"><ele>92.60000000000001</ele><time>2026-04-19T17:57:20Z</time></trkpt><trkpt lat="43.66571762402966" lon="11.133338570836536"><ele>92.2</ele><time>2026-04-19T17:57:22Z</time></trkpt><trkpt lat="43.665672995479596" lon="11.13340598309583"><ele>91.8</ele><time>2026-04-19T17:57:23Z</time></trkpt><trkpt lat="43.66555696873566" lon="11.133494304296567"><ele>91.4</ele><time>2026-04-19T17:57:25Z</time></trkpt><trkpt lat="43.665469062884895" lon="11.133503969878541"><ele>91.0</ele><time>2026-04-19T17:57:26Z</time></trkpt><trkpt lat="43.66536924326013" lon="11.133524149094269"><ele>91.8</ele><time>2026-04-19T17:57:26.999Z</time></trkpt><trkpt lat="43.66527162858837" lon="11.13354685843001"><ele>92.6</ele><time>2026-04-19T17:57:27.999Z</time></trkpt><trkpt lat="43.665182831764554" lon="11.133582165485187"><ele>93.4</ele><time>2026-04-19T17:57:28.999Z</time></trkpt><trkpt lat="43.66509438231707" lon="11.133623938611953"><ele>94.2</ele><time>2026-04-19T17:57:29.999Z</time></trkpt><trkpt lat="43.665008023786925" lon="11.133676968824092"><ele>95.0</ele><time>2026-04-19T17:57:30.999Z</time></trkpt><trkpt lat="43.66493550291349" lon="11.133734144143274"><ele>95.0</ele><time>2026-04-19T17:57:31.999Z</time></trkpt><trkpt lat="43.66487658217373" lon="11.133796923833888"><ele>95.0</ele><time>2026-04-19T17:57:32.999Z</time></trkpt><trkpt lat="43.664836160879425" lon="11.133871373091036"><ele>95.0</ele><time>2026-04-19T17:57:33.999Z</time></trkpt><trkpt lat="43.66480915576359" lon="11.133956655217533"><ele>95.0</ele><time>2026-04-19T17:57:34.999Z</time></trkpt><trkpt lat="43.664787322095016" lon="11.134050877142492"><ele>95.0</ele><time>2026-04-19T17:57:35.999Z</time></trkpt><trkpt lat="43.6647666367198" lon="11.134143862627209"><ele>95.0</ele><time>2026-04-19T17:57:36.999Z</time></trkpt><trkpt lat="43.66474369288727" lon="11.134241688554882"><ele>95.0</ele><time>2026-04-19T17:57:37.999Z</time></trkpt><trkpt lat="43.664725113675594" lon="11.134325429083967"><ele>94.83333333333334</ele><time>2026-04-19T17:57:38.999Z</time></trkpt><trkpt lat="43.664689477163186" lon="11.13448605053243"><ele>94.66666666666667</ele><time>2026-04-19T17:57:40.999Z</time></trkpt><trkpt lat="43.66466487269058" lon="11.134596948206445"><ele>94.5</ele><time>2026-04-19T17:57:41.999Z</time></trkpt><trkpt lat="43.66463995519179" lon="11.134709949386668"><ele>94.33333333333333</ele><time>2026-04-19T17:57:42.999Z</time></trkpt><trkpt lat="43.66461848423217" lon="11.134807658064098"><ele>94.16666666666666</ele><time>2026-04-19T17:57:43.999Z</time></trkpt><trkpt lat="43.664597234128074" lon="11.134904361660025"><ele>94.0</ele><time>2026-04-19T17:57:44.999Z</time></trkpt><trkpt lat="43.664571739251514" lon="11.13502038213252"><ele>94.0</ele><time>2026-04-19T17:57:45.999Z</time></trkpt><trkpt lat="43.66454809059875" lon="11.135128000902135"><ele>94.0</ele><time>2026-04-19T17:57:46.999Z</time></trkpt><trkpt lat="43.664526164008514" lon="11.135227782988023"><ele>94.0</ele><time>2026-04-19T17:57:47.999Z</time></trkpt><trkpt lat="43.66448932050971" lon="11.13538632537425"><ele>94.0</ele><time>2026-04-19T17:57:49.999Z</time></trkpt><trkpt lat="43.66445408633453" lon="11.135498046757547"><ele>94.0</ele><time>2026-04-19T17:57:51.999Z</time></trkpt><trkpt lat="43.664401333639965" lon="11.1355636833941"><ele>94.0</ele><time>2026-04-19T17:57:58.999Z</time></trkpt><trkpt lat="43.66433950950793" lon="11.135618333211273"><ele>94.0</ele><time>2026-04-19T17:58:00.999Z</time></trkpt><trkpt lat="43.66425646003461" lon="11.135654550310562"><ele>94.0</ele><time>2026-04-19T17:58:26.999Z</time></trkpt><trkpt lat="43.66419009171762" lon="11.135642782025867"><ele>94.0</ele><time>2026-04-19T17:58:31.999Z</time></trkpt><trkpt lat="43.66425416283688" lon="11.135670165601189"><ele>94.0</ele><time>2026-04-19T17:58:39.999Z</time></trkpt><trkpt lat="43.664327238321704" lon="11.135632081204458"><ele>94.0</ele><time>2026-04-19T17:58:41.999Z</time></trkpt><trkpt lat="43.66439048397381" lon="11.135575177190743"><ele>94.0</ele><time>2026-04-19T17:58:43.999Z</time></trkpt><trkpt lat="43.664472083058676" lon="11.135652933158164"><ele>94.0</ele><time>2026-04-19T17:58:45.999Z</time></trkpt><trkpt lat="43.66435049105522" lon="11.135705641069062"><ele>94.0</ele><time>2026-04-19T17:58:46.999Z</time></trkpt><trkpt lat="43.6645346690898" lon="11.135323838666157"><ele>94.0</ele><time>2026-04-19T17:58:47.999Z</time></trkpt><trkpt lat="43.6645545364682" lon="11.13521708855956"><ele>94.0</ele><time>2026-04-19T17:58:48.999Z</time></trkpt><trkpt lat="43.66458434741946" lon="11.13507285433814"><ele>94.0</ele><time>2026-04-19T17:58:49.999Z</time></trkpt><trkpt lat="43.66461598822085" lon="11.13493806841593"><ele>94.0</ele><time>2026-04-19T17:58:50.999Z</time></trkpt><trkpt lat="43.66464205569276" lon="11.13481548861826"><ele>94.0</ele><time>2026-04-19T17:58:51.999Z</time></trkpt><trkpt lat="43.66466732271821" lon="11.134700663502608"><ele>94.0</ele><time>2026-04-19T17:58:52.999Z</time></trkpt><trkpt lat="43.66469404304849" lon="11.134578076424178"><ele>94.0</ele><time>2026-04-19T17:58:53.999Z</time></trkpt><trkpt lat="43.66471829693086" lon="11.134476719809843"><ele>94.0</ele><time>2026-04-19T17:58:54.999Z</time></trkpt><trkpt lat="43.66474252398808" lon="11.134366296842085"><ele>94.0</ele><time>2026-04-19T17:58:55.999Z</time></trkpt><trkpt lat="43.66476349342534" lon="11.134258281084783"><ele>94.0</ele><time>2026-04-19T17:58:56.998Z</time></trkpt><trkpt lat="43.66478493034263" lon="11.134161311884966"><ele>94.0</ele><time>2026-04-19T17:58:57.998Z</time></trkpt><trkpt lat="43.66482525331739" lon="11.13397948438163"><ele>94.16666666666666</ele><time>2026-04-19T17:58:59.998Z</time></trkpt><trkpt lat="43.66485938918346" lon="11.133902379497407"><ele>94.33333333333333</ele><time>2026-04-19T17:59:00.998Z</time></trkpt><trkpt lat="43.664946986430174" lon="11.133771107312725"><ele>94.5</ele><time>2026-04-19T17:59:02.998Z</time></trkpt><trkpt lat="43.66500929513098" lon="11.133706386474152"><ele>94.66666666666667</ele><time>2026-04-19T17:59:03.999Z</time></trkpt><trkpt lat="43.66508688010822" lon="11.133659989635833"><ele>94.83333333333334</ele><time>2026-04-19T17:59:04.999Z</time></trkpt><trkpt lat="43.6651723298583" lon="11.133617790268598"><ele>95.0</ele><time>2026-04-19T17:59:05.999Z</time></trkpt><trkpt lat="43.66527159009951" lon="11.133581223230784"><ele>94.33333333333334</ele><time>2026-04-19T17:59:06.999Z</time></trkpt><trkpt lat="43.66538402340692" lon="11.133554112808337"><ele>93.66666666666667</ele><time>2026-04-19T17:59:07.999Z</time></trkpt><trkpt lat="43.66548532716863" lon="11.133538508515532"><ele>93.0</ele><time>2026-04-19T17:59:09.001Z</time></trkpt><trkpt lat="43.66555433811453" lon="11.133521094075313"><ele>92.33333333333333</ele><time>2026-04-19T17:59:10.001Z</time></trkpt><trkpt lat="43.66561994420677" lon="11.133491994548637"><ele>91.66666666666666</ele><time>2026-04-19T17:59:11.001Z</time></trkpt><trkpt lat="43.66567985503289" lon="11.133447441209075"><ele>91.0</ele><time>2026-04-19T17:59:12.001Z</time></trkpt><trkpt lat="43.66573089148433" lon="11.133379486935826"><ele>91.0</ele><time>2026-04-19T17:59:13.001Z</time></trkpt><trkpt lat="43.66577196403787" lon="11.133303914098375"><ele>91.0</ele><time>2026-04-19T17:59:14Z</time></trkpt><trkpt lat="43.6658242059961" lon="11.13321878191389"><ele>91.0</ele><time>2026-04-19T17:59:15Z</time></trkpt><trkpt lat="43.66588238140076" lon="11.133123801884707"><ele>91.0</ele><time>2026-04-19T17:59:16Z</time></trkpt><trkpt lat="43.665938109390815" lon="11.133023686541788"><ele>91.0</ele><time>2026-04-19T17:59:17Z</time></trkpt><trkpt lat="43.66599800054833" lon="11.132915271221997"><ele>91.0</ele><time>2026-04-19T17:59:18Z</time></trkpt><trkpt lat="43.666069455072154" lon="11.132795662130562"><ele>91.0</ele><time>2026-04-19T17:59:19Z</time></trkpt><trkpt lat="43.666131352635766" lon="11.132684815216201"><ele>91.0</ele><time>2026-04-19T17:59:20Z</time></trkpt><trkpt lat="43.66619673437189" lon="11.132578707853362"><ele>91.0</ele><time>2026-04-19T17:59:21Z</time></trkpt><trkpt lat="43.666261528321854" lon="11.132463277243483"><ele>91.0</ele><time>2026-04-19T17:59:22.001Z</time></trkpt><trkpt lat="43.66631990768369" lon="11.13236157238969"><ele>91.0</ele><time>2026-04-19T17:59:23Z</time></trkpt><trkpt lat="43.66638704540264" lon="11.132248463289994"><ele>91.0</ele><time>2026-04-19T17:59:24Z</time></trkpt><trkpt lat="43.66645501882673" lon="11.132139693995832"><ele>91.0</ele><time>2026-04-19T17:59:25Z</time></trkpt><trkpt lat="43.66651679445852" lon="11.132030239394258"><ele>91.0</ele><time>2026-04-19T17:59:26Z</time></trkpt><trkpt lat="43.666576412527256" lon="11.131917311013359"><ele>91.0</ele><time>2026-04-19T17:59:27Z</time></trkpt><trkpt lat="43.66663715115324" lon="11.131819234449127"><ele>91.0</ele><time>2026-04-19T17:59:28Z</time></trkpt><trkpt lat="43.66670364125802" lon="11.131706066377332"><ele>91.0</ele><time>2026-04-19T17:59:29Z</time></trkpt><trkpt lat="43.66677192194929" lon="11.131595908560396"><ele>91.0</ele><time>2026-04-19T17:59:30Z</time></trkpt><trkpt lat="43.66683168824837" lon="11.131488942132506"><ele>91.0</ele><time>2026-04-19T17:59:31Z</time></trkpt><trkpt lat="43.66689390131289" lon="11.13137338353493"><ele>91.0</ele><time>2026-04-19T17:59:32Z</time></trkpt><trkpt lat="43.666956197851995" lon="11.131272000412778"><ele>91.0</ele><time>2026-04-19T17:59:33Z</time></trkpt><trkpt lat="43.66701599659025" lon="11.131169035810714"><ele>90.83333333333333</ele><time>2026-04-19T17:59:34Z</time></trkpt><trkpt lat="43.66707753502659" lon="11.131070126820848"><ele>90.66666666666666</ele><time>2026-04-19T17:59:35Z</time></trkpt><trkpt lat="43.667140140353354" lon="11.130968446223314"><ele>90.5</ele><time>2026-04-19T17:59:36Z</time></trkpt><trkpt lat="43.66719521214277" lon="11.130867909514627"><ele>90.33333333333333</ele><time>2026-04-19T17:59:37Z</time></trkpt><trkpt lat="43.667246403506226" lon="11.130789260845935"><ele>90.16666666666667</ele><time>2026-04-19T17:59:38Z</time></trkpt><trkpt lat="43.66729870377687" lon="11.130703250332118"><ele>90.0</ele><time>2026-04-19T17:59:39Z</time></trkpt><trkpt lat="43.66734367923416" lon="11.130631106230538"><ele>90.66666666666667</ele><time>2026-04-19T17:59:40Z</time></trkpt><trkpt lat="43.66738244783351" lon="11.130554117361294"><ele>91.33333333333333</ele><time>2026-04-19T17:59:41Z</time></trkpt><trkpt lat="43.66742306610147" lon="11.130469241044427"><ele>92.0</ele><time>2026-04-19T17:59:42Z</time></trkpt><trkpt lat="43.66747769383712" lon="11.130413909352557"><ele>92.66666666666666</ele><time>2026-04-19T17:59:43Z</time></trkpt><trkpt lat="43.667563400265145" lon="11.130306110851539"><ele>93.33333333333333</ele><time>2026-04-19T17:59:45Z</time></trkpt><trkpt lat="43.667646671962494" lon="11.130206847647557"><ele>94.0</ele><time>2026-04-19T17:59:47Z</time></trkpt><trkpt lat="43.66771194975868" lon="11.130119252411022"><ele>93.5</ele><time>2026-04-19T17:59:49Z</time></trkpt><trkpt lat="43.667804814946486" lon="11.130031654354044"><ele>93.0</ele><time>2026-04-19T17:59:51Z</time></trkpt><trkpt lat="43.667848922792025" lon="11.12994182284915"><ele>92.5</ele><time>2026-04-19T17:59:52Z</time></trkpt><trkpt lat="43.66790260476648" lon="11.129866485453405"><ele>92.0</ele><time>2026-04-19T17:59:53Z</time></trkpt><trkpt lat="43.66794821182801" lon="11.129803451593038"><ele>91.5</ele><time>2026-04-19T17:59:54Z</time></trkpt><trkpt lat="43.66799675222143" lon="11.129676413367774"><ele>91.0</ele><time>2026-04-19T17:59:56Z</time></trkpt><trkpt lat="43.668041054389214" lon="11.129613721193666"><ele>91.0</ele><time>2026-04-19T17:59:59Z</time></trkpt><trkpt lat="43.66801903494478" lon="11.129746007512056"><ele>91.0</ele><time>2026-04-19T18:00:19Z</time></trkpt><trkpt lat="43.66814471735108" lon="11.129968458934107"><ele>91.0</ele><time>2026-04-19T18:00:20Z</time></trkpt><trkpt lat="43.668129181382675" lon="11.130060805783746"><ele>91.0</ele><time>2026-04-19T18:00:21Z</time></trkpt><trkpt lat="43.66810248423679" lon="11.130159246235012"><ele>91.0</ele><time>2026-04-19T18:00:22Z</time></trkpt><trkpt lat="43.6680739606435" lon="11.130241262883164"><ele>91.0</ele><time>2026-04-19T18:00:23Z</time></trkpt><trkpt lat="43.668042939935376" lon="11.130320604420486"><ele>91.0</ele><time>2026-04-19T18:00:24Z</time></trkpt><trkpt lat="43.66802007208623" lon="11.130403523449818"><ele>91.0</ele><time>2026-04-19T18:00:25Z</time></trkpt><trkpt lat="43.668006917396305" lon="11.13048895946711"><ele>91.0</ele><time>2026-04-19T18:00:26Z</time></trkpt><trkpt lat="43.66800348985552" lon="11.130597208382738"><ele>91.0</ele><time>2026-04-19T18:00:27Z</time></trkpt><trkpt lat="43.668072977240854" lon="11.130750821771239"><ele>91.0</ele><time>2026-04-19T18:00:29Z</time></trkpt><trkpt lat="43.66812694772408" lon="11.130832888362564"><ele>90.4</ele><time>2026-04-19T18:00:30Z</time></trkpt><trkpt lat="43.66818599641873" lon="11.130935040681772"><ele>89.8</ele><time>2026-04-19T18:00:31Z</time></trkpt><trkpt lat="43.66824120855396" lon="11.131043363616474"><ele>89.2</ele><time>2026-04-19T18:00:32Z</time></trkpt><trkpt lat="43.668307305048096" lon="11.131180070950151"><ele>88.60000000000001</ele><time>2026-04-19T18:00:33Z</time></trkpt><trkpt lat="43.668373133880294" lon="11.1313184594059"><ele>88.0</ele><time>2026-04-19T18:00:34Z</time></trkpt><trkpt lat="43.66844395076583" lon="11.13144700165241"><ele>88.0</ele><time>2026-04-19T18:00:35Z</time></trkpt><trkpt lat="43.66851759421848" lon="11.131566329813282"><ele>88.0</ele><time>2026-04-19T18:00:36Z</time></trkpt><trkpt lat="43.66858570345835" lon="11.131689604541295"><ele>88.0</ele><time>2026-04-19T18:00:37Z</time></trkpt><trkpt lat="43.66864788581801" lon="11.131804994472015"><ele>88.0</ele><time>2026-04-19T18:00:38Z</time></trkpt><trkpt lat="43.668707833543955" lon="11.131915012948225"><ele>88.0</ele><time>2026-04-19T18:00:39Z</time></trkpt><trkpt lat="43.66876522027845" lon="11.132025739246528"><ele>87.83333333333333</ele><time>2026-04-19T18:00:40Z</time></trkpt><trkpt lat="43.66882253229691" lon="11.132131460815737"><ele>87.66666666666666</ele><time>2026-04-19T18:00:41Z</time></trkpt><trkpt lat="43.66887922652829" lon="11.13222729661538"><ele>87.5</ele><time>2026-04-19T18:00:42Z</time></trkpt><trkpt lat="43.66893940935042" lon="11.132322116309465"><ele>87.33333333333333</ele><time>2026-04-19T18:00:43Z</time></trkpt><trkpt lat="43.66898708997057" lon="11.132423708775931"><ele>87.16666666666667</ele><time>2026-04-19T18:00:44Z</time></trkpt><trkpt lat="43.66903482073529" lon="11.132508978280546"><ele>87.0</ele><time>2026-04-19T18:00:45Z</time></trkpt><trkpt lat="43.66908051155309" lon="11.132597980751912"><ele>87.0</ele><time>2026-04-19T18:00:46Z</time></trkpt><trkpt lat="43.669134125256356" lon="11.132679184198302"><ele>87.0</ele><time>2026-04-19T18:00:47Z</time></trkpt><trkpt lat="43.669179607098464" lon="11.132762374540727"><ele>87.0</ele><time>2026-04-19T18:00:48Z</time></trkpt><trkpt lat="43.669223615031264" lon="11.132848630833442"><ele>87.0</ele><time>2026-04-19T18:00:49Z</time></trkpt><trkpt lat="43.66926676255307" lon="11.132939349029385"><ele>87.0</ele><time>2026-04-19T18:00:50Z</time></trkpt><trkpt lat="43.66932359323214" lon="11.133077179934826"><ele>87.0</ele><time>2026-04-19T18:00:52Z</time></trkpt><trkpt lat="43.66935607171217" lon="11.133164955611182"><ele>87.0</ele><time>2026-04-19T18:00:54Z</time></trkpt><trkpt lat="43.66940627406483" lon="11.133258327620906"><ele>87.0</ele><time>2026-04-19T18:00:55.999Z</time></trkpt><trkpt lat="43.669461989360975" lon="11.133323555842338"><ele>87.0</ele><time>2026-04-19T18:00:57.999Z</time></trkpt><trkpt lat="43.66955874705365" lon="11.13327230877624"><ele>87.0</ele><time>2026-04-19T18:00:59.999Z</time></trkpt><trkpt lat="43.66963111754524" lon="11.133204080492769"><ele>87.0</ele><time>2026-04-19T18:01:00.999Z</time></trkpt><trkpt lat="43.669703692512044" lon="11.133122190195616"><ele>87.0</ele><time>2026-04-19T18:01:02.999Z</time></trkpt><trkpt lat="43.66978226031965" lon="11.133064715225657"><ele>87.0</ele><time>2026-04-19T18:01:04.999Z</time></trkpt><trkpt lat="43.66984392876944" lon="11.133032620159572"><ele>87.0</ele><time>2026-04-19T18:01:05.999Z</time></trkpt><trkpt lat="43.669918876572694" lon="11.133006916050801"><ele>87.0</ele><time>2026-04-19T18:01:07.999Z</time></trkpt><trkpt lat="43.67000111980332" lon="11.13304894569604"><ele>87.0</ele><time>2026-04-19T18:01:10.999Z</time></trkpt><trkpt lat="43.67006950351135" lon="11.13305112474494"><ele>87.0</ele><time>2026-04-19T18:01:25Z</time></trkpt><trkpt lat="43.67014465515847" lon="11.133077973811375"><ele>87.0</ele><time>2026-04-19T18:01:28Z</time></trkpt><trkpt lat="43.67023490087899" lon="11.133083650497557"><ele>86.83333333333333</ele><time>2026-04-19T18:01:31Z</time></trkpt><trkpt lat="43.67028459906404" lon="11.133175165446268"><ele>86.66666666666667</ele><time>2026-04-19T18:01:33Z</time></trkpt><trkpt lat="43.670319159166446" lon="11.13325628268317"><ele>86.5</ele><time>2026-04-19T18:01:35Z</time></trkpt><trkpt lat="43.67037195500463" lon="11.133354475097182"><ele>86.33333333333334</ele><time>2026-04-19T18:01:37Z</time></trkpt><trkpt lat="43.67043319036849" lon="11.133237317680322"><ele>86.16666666666667</ele><time>2026-04-19T18:01:41Z</time></trkpt><trkpt lat="43.6705086092111" lon="11.133138276561581"><ele>86.0</ele><time>2026-04-19T18:01:43Z</time></trkpt><trkpt lat="43.67060034039316" lon="11.133058188180971"><ele>85.83333333333334</ele><time>2026-04-19T18:01:45Z</time></trkpt><trkpt lat="43.67065356741472" lon="11.133009980830789"><ele>85.66666666666667</ele><time>2026-04-19T18:01:46Z</time></trkpt><trkpt lat="43.670744873367134" lon="11.132930532703185"><ele>85.5</ele><time>2026-04-19T18:01:48Z</time></trkpt><trkpt lat="43.67083934679504" lon="11.132862835610306"><ele>85.33333333333333</ele><time>2026-04-19T18:01:50Z</time></trkpt><trkpt lat="43.67089800053732" lon="11.132794329263051"><ele>85.16666666666666</ele><time>2026-04-19T18:01:51Z</time></trkpt><trkpt lat="43.67095111864965" lon="11.132744181923563"><ele>85.0</ele><time>2026-04-19T18:01:52Z</time></trkpt><trkpt lat="43.67102453536831" lon="11.132680146149427"><ele>85.0</ele><time>2026-04-19T18:01:54Z</time></trkpt><trkpt lat="43.67109621796166" lon="11.13261621100278"><ele>85.0</ele><time>2026-04-19T18:01:56Z</time></trkpt><trkpt lat="43.67118172737139" lon="11.132539474329805"><ele>85.0</ele><time>2026-04-19T18:01:57Z</time></trkpt><trkpt lat="43.67127139707596" lon="11.132471118617735"><ele>85.0</ele><time>2026-04-19T18:01:58Z</time></trkpt><trkpt lat="43.67135250405914" lon="11.132418356762084"><ele>85.0</ele><time>2026-04-19T18:01:59Z</time></trkpt><trkpt lat="43.67143174239619" lon="11.132361182311842"><ele>84.8</ele><time>2026-04-19T18:02:00Z</time></trkpt><trkpt lat="43.671523593939824" lon="11.132307276669396"><ele>84.6</ele><time>2026-04-19T18:02:01Z</time></trkpt><trkpt lat="43.67161667253126" lon="11.132253382606137"><ele>84.4</ele><time>2026-04-19T18:02:02Z</time></trkpt><trkpt lat="43.67170527474951" lon="11.132212458792816"><ele>84.2</ele><time>2026-04-19T18:02:03Z</time></trkpt><trkpt lat="43.67180358865021" lon="11.13218581501619"><ele>84.0</ele><time>2026-04-19T18:02:04Z</time></trkpt><trkpt lat="43.67190271426587" lon="11.13214889510259"><ele>83.66666666666667</ele><time>2026-04-19T18:02:05Z</time></trkpt><trkpt lat="43.67198924658592" lon="11.13212547435945"><ele>83.33333333333333</ele><time>2026-04-19T18:02:06Z</time></trkpt><trkpt lat="43.672057975858806" lon="11.132111452131749"><ele>83.0</ele><time>2026-04-19T18:02:07Z</time></trkpt><trkpt lat="43.67213890079513" lon="11.132097523128193"><ele>82.66666666666666</ele><time>2026-04-19T18:02:08Z</time></trkpt><trkpt lat="43.672231949797194" lon="11.132074965363186"><ele>82.33333333333333</ele><time>2026-04-19T18:02:09Z</time></trkpt><trkpt lat="43.67232413168223" lon="11.13205505236184"><ele>82.0</ele><time>2026-04-19T18:02:10Z</time></trkpt><trkpt lat="43.67240642511145" lon="11.132038777495326"><ele>82.0</ele><time>2026-04-19T18:02:11Z</time></trkpt><trkpt lat="43.672499667459206" lon="11.132031313074679"><ele>82.0</ele><time>2026-04-19T18:02:12Z</time></trkpt><trkpt lat="43.67258747154033" lon="11.132021940579698"><ele>82.0</ele><time>2026-04-19T18:02:13Z</time></trkpt><trkpt lat="43.672684882558364" lon="11.132015233100539"><ele>82.0</ele><time>2026-04-19T18:02:14Z</time></trkpt><trkpt lat="43.67280344773184" lon="11.132006926219331"><ele>82.0</ele><time>2026-04-19T18:02:15Z</time></trkpt><trkpt lat="43.67292858933884" lon="11.132000492604554"><ele>82.0</ele><time>2026-04-19T18:02:16Z</time></trkpt><trkpt lat="43.67304270856359" lon="11.132008844204544"><ele>82.0</ele><time>2026-04-19T18:02:17Z</time></trkpt><trkpt lat="43.67314060734287" lon="11.132026578631153"><ele>82.0</ele><time>2026-04-19T18:02:18Z</time></trkpt><trkpt lat="43.673242168970475" lon="11.13204528336086"><ele>82.0</ele><time>2026-04-19T18:02:19Z</time></trkpt><trkpt lat="43.67334211605291" lon="11.132055615635263"><ele>82.0</ele><time>2026-04-19T18:02:20Z</time></trkpt><trkpt lat="43.673430420663856" lon="11.132062247592687"><ele>82.0</ele><time>2026-04-19T18:02:21Z</time></trkpt><trkpt lat="43.673506717571506" lon="11.13205525073783"><ele>82.0</ele><time>2026-04-19T18:02:22Z</time></trkpt><trkpt lat="43.6736166989576" lon="11.132077139258726"><ele>82.0</ele><time>2026-04-19T18:02:24Z</time></trkpt><trkpt lat="43.673677694156154" lon="11.132050906160082"><ele>82.0</ele><time>2026-04-19T18:02:26Z</time></trkpt><trkpt lat="43.673741580890166" lon="11.132053975501908"><ele>82.0</ele><time>2026-04-19T18:02:28Z</time></trkpt><trkpt lat="43.67384214360451" lon="11.132048488132215"><ele>82.0</ele><time>2026-04-19T18:02:31Z</time></trkpt><trkpt lat="43.67391242514284" lon="11.13202829406757"><ele>81.8</ele><time>2026-04-19T18:02:32Z</time></trkpt><trkpt lat="43.67398925128428" lon="11.13201019121402"><ele>81.6</ele><time>2026-04-19T18:02:33Z</time></trkpt><trkpt lat="43.67407463635841" lon="11.132003251185736"><ele>81.39999999999999</ele><time>2026-04-19T18:02:34Z</time></trkpt><trkpt lat="43.67417334087217" lon="11.131994577175139"><ele>81.19999999999999</ele><time>2026-04-19T18:02:35Z</time></trkpt><trkpt lat="43.67427137545717" lon="11.131997681900419"><ele>81.0</ele><time>2026-04-19T18:02:36Z</time></trkpt><trkpt lat="43.67437058116621" lon="11.131991759776186"><ele>81.0</ele><time>2026-04-19T18:02:37Z</time></trkpt><trkpt lat="43.67446347785031" lon="11.131989073239264"><ele>81.0</ele><time>2026-04-19T18:02:38Z</time></trkpt><trkpt lat="43.67454949523022" lon="11.131983236633573"><ele>81.0</ele><time>2026-04-19T18:02:39Z</time></trkpt><trkpt lat="43.67463275172507" lon="11.131982113190258"><ele>81.0</ele><time>2026-04-19T18:02:40Z</time></trkpt><trkpt lat="43.674706157797054" lon="11.131983021181844"><ele>81.0</ele><time>2026-04-19T18:02:41Z</time></trkpt><trkpt lat="43.67476901886071" lon="11.131968309889833"><ele>81.0</ele><time>2026-04-19T18:02:42Z</time></trkpt><trkpt lat="43.67487407588461" lon="11.131890078240055"><ele>81.0</ele><time>2026-04-19T18:02:44Z</time></trkpt><trkpt lat="43.67493264380974" lon="11.131850108104187"><ele>81.0</ele><time>2026-04-19T18:02:45Z</time></trkpt><trkpt lat="43.67499173129481" lon="11.131813724028742"><ele>81.0</ele><time>2026-04-19T18:02:46Z</time></trkpt><trkpt lat="43.675052742451626" lon="11.131777713076174"><ele>81.0</ele><time>2026-04-19T18:02:46.999Z</time></trkpt><trkpt lat="43.67511698351124" lon="11.131749495499594"><ele>81.0</ele><time>2026-04-19T18:02:47.999Z</time></trkpt><trkpt lat="43.67518746853434" lon="11.131720234647457"><ele>81.0</ele><time>2026-04-19T18:02:48.999Z</time></trkpt><trkpt lat="43.67526741074575" lon="11.131690097911855"><ele>81.0</ele><time>2026-04-19T18:02:49.999Z</time></trkpt><trkpt lat="43.67534828184191" lon="11.131660222239203"><ele>80.83333333333333</ele><time>2026-04-19T18:02:50.999Z</time></trkpt><trkpt lat="43.67542209344579" lon="11.131622181098361"><ele>80.66666666666667</ele><time>2026-04-19T18:02:51.999Z</time></trkpt><trkpt lat="43.67550058668749" lon="11.131575287468378"><ele>80.5</ele><time>2026-04-19T18:02:52.999Z</time></trkpt><trkpt lat="43.67556921654174" lon="11.131531343973606"><ele>80.33333333333334</ele><time>2026-04-19T18:02:53.999Z</time></trkpt><trkpt lat="43.675634669488694" lon="11.131497677189781"><ele>80.16666666666667</ele><time>2026-04-19T18:02:54.999Z</time></trkpt><trkpt lat="43.67570809030557" lon="11.131454714644343"><ele>80.0</ele><time>2026-04-19T18:02:55.999Z</time></trkpt><trkpt lat="43.67579451467026" lon="11.131401615673886"><ele>80.2</ele><time>2026-04-19T18:02:56.999Z</time></trkpt><trkpt lat="43.67587347671191" lon="11.131356241612359"><ele>80.4</ele><time>2026-04-19T18:02:57.999Z</time></trkpt><trkpt lat="43.67594660276524" lon="11.131298139897696"><ele>80.6</ele><time>2026-04-19T18:02:58.999Z</time></trkpt><trkpt lat="43.676023235348026" lon="11.131232391258452"><ele>80.8</ele><time>2026-04-19T18:02:59.999Z</time></trkpt><trkpt lat="43.67610807148406" lon="11.131151129078702"><ele>81.0</ele><time>2026-04-19T18:03:00.999Z</time></trkpt><trkpt lat="43.676187787079925" lon="11.131078269999684"><ele>81.0</ele><time>2026-04-19T18:03:01.999Z</time></trkpt><trkpt lat="43.67625853623839" lon="11.131011087340859"><ele>81.0</ele><time>2026-04-19T18:03:02.999Z</time></trkpt><trkpt lat="43.67632239083391" lon="11.130971959214378"><ele>81.0</ele><time>2026-04-19T18:03:03.999Z</time></trkpt><trkpt lat="43.67638210898776" lon="11.1309282441393"><ele>81.0</ele><time>2026-04-19T18:03:04.999Z</time></trkpt><trkpt lat="43.67644937703294" lon="11.130881319224981"><ele>81.0</ele><time>2026-04-19T18:03:05.999Z</time></trkpt><trkpt lat="43.676552199671676" lon="11.130815828614336"><ele>81.0</ele><time>2026-04-19T18:03:07.999Z</time></trkpt><trkpt lat="43.676643557101436" lon="11.130740672553467"><ele>81.33333333333333</ele><time>2026-04-19T18:03:09.999Z</time></trkpt><trkpt lat="43.676740676409956" lon="11.130660976314642"><ele>81.66666666666667</ele><time>2026-04-19T18:03:11.999Z</time></trkpt><trkpt lat="43.67683145789301" lon="11.130591956524537"><ele>82.0</ele><time>2026-04-19T18:03:12.999Z</time></trkpt><trkpt lat="43.676911068186115" lon="11.130539003899063"><ele>82.33333333333334</ele><time>2026-04-19T18:03:13.999Z</time></trkpt><trkpt lat="43.67696891209196" lon="11.130494487742693"><ele>82.66666666666667</ele><time>2026-04-19T18:03:14.999Z</time></trkpt><trkpt lat="43.677026312734014" lon="11.130450992888514"><ele>83.0</ele><time>2026-04-19T18:03:15.999Z</time></trkpt><trkpt lat="43.67708767172129" lon="11.130394980184844"><ele>83.16666666666667</ele><time>2026-04-19T18:03:16.999Z</time></trkpt><trkpt lat="43.67715531274982" lon="11.130342833370989"><ele>83.33333333333334</ele><time>2026-04-19T18:03:17.999Z</time></trkpt><trkpt lat="43.67722108695473" lon="11.13028773816871"><ele>83.5</ele><time>2026-04-19T18:03:18.999Z</time></trkpt><trkpt lat="43.67729310895707" lon="11.130230610038163"><ele>83.66666666666667</ele><time>2026-04-19T18:03:20Z</time></trkpt><trkpt lat="43.67736026332477" lon="11.130194006356117"><ele>83.83333333333333</ele><time>2026-04-19T18:03:21Z</time></trkpt><trkpt lat="43.67743806626879" lon="11.130156153973257"><ele>84.0</ele><time>2026-04-19T18:03:22Z</time></trkpt><trkpt lat="43.6775210570618" lon="11.1301096437606"><ele>84.0</ele><time>2026-04-19T18:03:23Z</time></trkpt><trkpt lat="43.67759375758452" lon="11.130078790701774"><ele>84.0</ele><time>2026-04-19T18:03:24Z</time></trkpt><trkpt lat="43.6776760798908" lon="11.13004826852803"><ele>84.0</ele><time>2026-04-19T18:03:25Z</time></trkpt><trkpt lat="43.67774642030383" lon="11.130022259153906"><ele>84.0</ele><time>2026-04-19T18:03:26Z</time></trkpt><trkpt lat="43.67788174726914" lon="11.129973510555583"><ele>84.0</ele><time>2026-04-19T18:03:28Z</time></trkpt><trkpt lat="43.67794962700722" lon="11.129965440528144"><ele>84.0</ele><time>2026-04-19T18:03:29Z</time></trkpt><trkpt lat="43.67801705146574" lon="11.12994910252041"><ele>83.83333333333333</ele><time>2026-04-19T18:03:30Z</time></trkpt><trkpt lat="43.67814497375504" lon="11.129914942870064"><ele>83.66666666666667</ele><time>2026-04-19T18:03:32Z</time></trkpt><trkpt lat="43.67822285697909" lon="11.129896583985047"><ele>83.5</ele><time>2026-04-19T18:03:33Z</time></trkpt><trkpt lat="43.67829938140187" lon="11.129862271667976"><ele>83.33333333333334</ele><time>2026-04-19T18:03:34Z</time></trkpt><trkpt lat="43.6783683999669" lon="11.129815355655438"><ele>83.16666666666667</ele><time>2026-04-19T18:03:35Z</time></trkpt><trkpt lat="43.6784271417108" lon="11.129779688895859"><ele>83.0</ele><time>2026-04-19T18:03:36Z</time></trkpt><trkpt lat="43.6784879995596" lon="11.129744762246968"><ele>83.0</ele><time>2026-04-19T18:03:37Z</time></trkpt><trkpt lat="43.67855950868863" lon="11.129704444872003"><ele>83.0</ele><time>2026-04-19T18:03:38Z</time></trkpt><trkpt lat="43.67864329876579" lon="11.129655336224573"><ele>83.0</ele><time>2026-04-19T18:03:39Z</time></trkpt><trkpt lat="43.67872998222401" lon="11.129604620167305"><ele>83.0</ele><time>2026-04-19T18:03:40Z</time></trkpt><trkpt lat="43.678814486013586" lon="11.129550301181045"><ele>83.0</ele><time>2026-04-19T18:03:41Z</time></trkpt><trkpt lat="43.67890027111481" lon="11.12948942838549"><ele>82.66666666666667</ele><time>2026-04-19T18:03:42Z</time></trkpt><trkpt lat="43.678989778420934" lon="11.129435674418358"><ele>82.33333333333334</ele><time>2026-04-19T18:03:43Z</time></trkpt><trkpt lat="43.6790658526024" lon="11.129388221488432"><ele>82.0</ele><time>2026-04-19T18:03:44Z</time></trkpt><trkpt lat="43.67913825287226" lon="11.129339607193582"><ele>81.66666666666667</ele><time>2026-04-19T18:03:45Z</time></trkpt><trkpt lat="43.679219783690115" lon="11.129296361834548"><ele>81.33333333333333</ele><time>2026-04-19T18:03:46Z</time></trkpt><trkpt lat="43.679310887875474" lon="11.129251090239082"><ele>81.0</ele><time>2026-04-19T18:03:47Z</time></trkpt><trkpt lat="43.67939169877548" lon="11.129213706374241"><ele>80.83333333333333</ele><time>2026-04-19T18:03:48Z</time></trkpt><trkpt lat="43.679464842753575" lon="11.129180653656158"><ele>80.66666666666667</ele><time>2026-04-19T18:03:49Z</time></trkpt><trkpt lat="43.67952976909761" lon="11.129162780346766"><ele>80.5</ele><time>2026-04-19T18:03:50Z</time></trkpt><trkpt lat="43.67958707406296" lon="11.129124075187079"><ele>80.33333333333334</ele><time>2026-04-19T18:03:51Z</time></trkpt><trkpt lat="43.679691927838" lon="11.12911215544486"><ele>80.16666666666667</ele><time>2026-04-19T18:03:53Z</time></trkpt><trkpt lat="43.67978059851541" lon="11.129086924719825"><ele>80.0</ele><time>2026-04-19T18:03:55Z</time></trkpt><trkpt lat="43.67980324243882" lon="11.129172479606439"><ele>80.0</ele><time>2026-04-19T18:03:56Z</time></trkpt><trkpt lat="43.67984423474146" lon="11.1292606788736"><ele>80.0</ele><time>2026-04-19T18:03:57Z</time></trkpt><trkpt lat="43.67988716142462" lon="11.129345277833703"><ele>80.0</ele><time>2026-04-19T18:03:58Z</time></trkpt><trkpt lat="43.679944850260945" lon="11.129428837649709"><ele>80.0</ele><time>2026-04-19T18:03:59Z</time></trkpt><trkpt lat="43.68000041831546" lon="11.12953778526208"><ele>80.0</ele><time>2026-04-19T18:04:00Z</time></trkpt><trkpt lat="43.680042186208766" lon="11.129657004500729"><ele>80.0</ele><time>2026-04-19T18:04:01Z</time></trkpt><trkpt lat="43.68003205805574" lon="11.129772682661024"><ele>80.0</ele><time>2026-04-19T18:04:02Z</time></trkpt><trkpt lat="43.68003513181697" lon="11.129878474647624"><ele>80.0</ele><time>2026-04-19T18:04:03Z</time></trkpt><trkpt lat="43.68003678457573" lon="11.129982715402633"><ele>80.0</ele><time>2026-04-19T18:04:04Z</time></trkpt><trkpt lat="43.68002512787203" lon="11.13007206578558"><ele>80.0</ele><time>2026-04-19T18:04:05Z</time></trkpt><trkpt lat="43.67997450106732" lon="11.130142601462675"><ele>80.0</ele><time>2026-04-19T18:04:06Z</time></trkpt><trkpt lat="43.67989524529048" lon="11.130213306484212"><ele>80.0</ele><time>2026-04-19T18:04:07Z</time></trkpt><trkpt lat="43.67982686610297" lon="11.130336886471287"><ele>80.4</ele><time>2026-04-19T18:04:08Z</time></trkpt><trkpt lat="43.67978732234549" lon="11.13045016833744"><ele>80.8</ele><time>2026-04-19T18:04:09Z</time></trkpt><trkpt lat="43.67990008086417" lon="11.13058845936026"><ele>81.19999999999999</ele><time>2026-04-19T18:04:12Z</time></trkpt><trkpt lat="43.67997461469758" lon="11.13061942010653"><ele>81.6</ele><time>2026-04-19T18:04:13Z</time></trkpt><trkpt lat="43.68005897198739" lon="11.130688448765325"><ele>82.0</ele><time>2026-04-19T18:04:14Z</time></trkpt><trkpt lat="43.680151628674054" lon="11.130749397681349"><ele>83.39999999999999</ele><time>2026-04-19T18:04:15Z</time></trkpt><trkpt lat="43.680253408421706" lon="11.130788903132535"><ele>84.8</ele><time>2026-04-19T18:04:16Z</time></trkpt><trkpt lat="43.680331204202304" lon="11.130851515784617"><ele>86.2</ele><time>2026-04-19T18:04:17Z</time></trkpt><trkpt lat="43.68039237175927" lon="11.130890020093709"><ele>87.6</ele><time>2026-04-19T18:04:18Z</time></trkpt><trkpt lat="43.68052081974576" lon="11.130860897118538"><ele>89.0</ele><time>2026-04-19T18:04:20Z</time></trkpt><trkpt lat="43.68059688876861" lon="11.130823019041447"><ele>88.66666666666667</ele><time>2026-04-19T18:04:21Z</time></trkpt><trkpt lat="43.680668385748554" lon="11.130800018092106"><ele>88.33333333333334</ele><time>2026-04-19T18:04:22Z</time></trkpt><trkpt lat="43.68079626986026" lon="11.130755701175197"><ele>88.0</ele><time>2026-04-19T18:04:24Z</time></trkpt><trkpt lat="43.680860715818575" lon="11.13073898119589"><ele>87.66666666666667</ele><time>2026-04-19T18:04:25Z</time></trkpt><trkpt lat="43.680923710615545" lon="11.130724363700347"><ele>87.33333333333333</ele><time>2026-04-19T18:04:26Z</time></trkpt><trkpt lat="43.68099204372252" lon="11.130714189626888"><ele>87.0</ele><time>2026-04-19T18:04:27Z</time></trkpt><trkpt lat="43.68105667026933" lon="11.130702070028986"><ele>87.6</ele><time>2026-04-19T18:04:28Z</time></trkpt><trkpt lat="43.68118434053192" lon="11.130684659587983"><ele>88.19999999999999</ele><time>2026-04-19T18:04:30Z</time></trkpt><trkpt lat="43.681299091867416" lon="11.13066393973458"><ele>88.8</ele><time>2026-04-19T18:04:31Z</time></trkpt><trkpt lat="43.681372743079855" lon="11.130652274160516"><ele>89.4</ele><time>2026-04-19T18:04:32Z</time></trkpt><trkpt lat="43.68144182226941" lon="11.130637288473972"><ele>90.0</ele><time>2026-04-19T18:04:34Z</time></trkpt><trkpt lat="43.68150440154395" lon="11.130621823106768"><ele>90.0</ele><time>2026-04-19T18:04:35Z</time></trkpt><trkpt lat="43.681597334731535" lon="11.130608643404422"><ele>90.0</ele><time>2026-04-19T18:04:36Z</time></trkpt><trkpt lat="43.68167685997908" lon="11.130592222716766"><ele>90.0</ele><time>2026-04-19T18:04:37Z</time></trkpt><trkpt lat="43.68175110232521" lon="11.130591072257218"><ele>90.0</ele><time>2026-04-19T18:04:39Z</time></trkpt><trkpt lat="43.68182710106479" lon="11.130583502264209"><ele>90.0</ele><time>2026-04-19T18:04:40Z</time></trkpt><trkpt lat="43.681906356503205" lon="11.130561091810224"><ele>90.0</ele><time>2026-04-19T18:04:42Z</time></trkpt><trkpt lat="43.68199329689211" lon="11.130557752657733"><ele>90.16666666666667</ele><time>2026-04-19T18:04:44Z</time></trkpt><trkpt lat="43.68206274321196" lon="11.130613793765136"><ele>90.33333333333333</ele><time>2026-04-19T18:04:46Z</time></trkpt><trkpt lat="43.68205946177033" lon="11.130733464839834"><ele>90.5</ele><time>2026-04-19T18:04:48Z</time></trkpt><trkpt lat="43.682048580766505" lon="11.130827969153257"><ele>90.66666666666666</ele><time>2026-04-19T18:04:50Z</time></trkpt><trkpt lat="43.68202915454663" lon="11.130935097342824"><ele>90.83333333333333</ele><time>2026-04-19T18:04:54Z</time></trkpt><trkpt lat="43.68200301414235" lon="11.131077160207946"><ele>91.0</ele><time>2026-04-19T18:04:55.999Z</time></trkpt><trkpt lat="43.68198041550781" lon="11.131170512052934"><ele>91.0</ele><time>2026-04-19T18:04:56.999Z</time></trkpt><trkpt lat="43.68194001203959" lon="11.131239655375195"><ele>91.0</ele><time>2026-04-19T18:05:02.999Z</time></trkpt><trkpt lat="43.681910122931285" lon="11.131330276444114"><ele>91.0</ele><time>2026-04-19T18:05:27Z</time></trkpt><trkpt lat="43.681853591301426" lon="11.131377678169553"><ele>91.0</ele><time>2026-04-19T18:05:31Z</time></trkpt><trkpt lat="43.68178966135814" lon="11.131469332069317"><ele>91.0</ele><time>2026-04-19T18:05:34Z</time></trkpt><trkpt lat="43.68173799765447" lon="11.131543184730496"><ele>91.0</ele><time>2026-04-19T18:05:37Z</time></trkpt><trkpt lat="43.681670812733245" lon="11.131634058322794"><ele>98.0</ele><time>2026-04-19T18:05:40Z</time></trkpt><trkpt lat="43.68162066072615" lon="11.131711005736115"><ele>98.0</ele><time>2026-04-19T18:05:42Z</time></trkpt><trkpt lat="43.681570743483675" lon="11.131781362932307"><ele>98.0</ele><time>2026-04-19T18:05:44Z</time></trkpt><trkpt lat="43.681516789634095" lon="11.131859251292978"><ele>98.0</ele><time>2026-04-19T18:05:46Z</time></trkpt><trkpt lat="43.68145684443754" lon="11.131943685213214"><ele>98.0</ele><time>2026-04-19T18:05:48Z</time></trkpt><trkpt lat="43.68139584950886" lon="11.132012247939812"><ele>98.0</ele><time>2026-04-19T18:05:51Z</time></trkpt></trkseg></trk></gpx>